<?xml version="1.0" encoding="UTF-8" standalone="no" ?>
<gpx xmlns="http://www.topografix.com/GPX/1/1" xmlns:xsi="http://www.w3.org/2001/XMLSchema-instance" xsi:schemaLocation="http://www.topografix.com/GPX/1/1 http://www.topografix.com/GPX/1/1/gpx.xsd" version="1.1" creator="VisuGPX - https://www.visugpx.com">
  <metadata>
    <name>pont Sénégats - Saint Jean Del Frech</name>
    <desc><![CDATA[réalisée
]]></desc>
  </metadata>
  <trk>
    <name><![CDATA[2020-03-27-02]]></name>
    <trkseg>
      <trkpt lat="43.7172" lon="2.52001">
        <ele>806.9</ele>
        <time>2020-03-27T10:51:56Z</time>
      </trkpt>
      <trkpt lat="43.7172" lon="2.52001">
        <ele>806.9</ele>
        <time>2020-03-27T10:51:57Z</time>
      </trkpt>
      <trkpt lat="43.7173" lon="2.51996">
        <ele>806.2</ele>
        <time>2020-03-27T10:52:16Z</time>
      </trkpt>
      <trkpt lat="43.71741" lon="2.51992">
        <ele>805.2</ele>
        <time>2020-03-27T10:52:20Z</time>
      </trkpt>
      <trkpt lat="43.7175" lon="2.51987">
        <ele>803.5</ele>
        <time>2020-03-27T10:52:22Z</time>
      </trkpt>
      <trkpt lat="43.71758" lon="2.51981">
        <ele>802.2</ele>
        <time>2020-03-27T10:52:24Z</time>
      </trkpt>
      <trkpt lat="43.71769" lon="2.51973">
        <ele>801.5</ele>
        <time>2020-03-27T10:52:27Z</time>
      </trkpt>
      <trkpt lat="43.71778" lon="2.5197">
        <ele>801.4</ele>
        <time>2020-03-27T10:52:30Z</time>
      </trkpt>
      <trkpt lat="43.71786" lon="2.51982">
        <ele>801.3</ele>
        <time>2020-03-27T10:52:57Z</time>
      </trkpt>
      <trkpt lat="43.71792" lon="2.51997">
        <ele>801.7</ele>
        <time>2020-03-27T10:53:01Z</time>
      </trkpt>
      <trkpt lat="43.71798" lon="2.52013">
        <ele>802.8</ele>
        <time>2020-03-27T10:53:04Z</time>
      </trkpt>
      <trkpt lat="43.71802" lon="2.52024">
        <ele>803.1</ele>
        <time>2020-03-27T10:53:06Z</time>
      </trkpt>
      <trkpt lat="43.71807" lon="2.52036">
        <ele>803</ele>
        <time>2020-03-27T10:53:08Z</time>
      </trkpt>
      <trkpt lat="43.71811" lon="2.52048">
        <ele>802.4</ele>
        <time>2020-03-27T10:53:10Z</time>
      </trkpt>
      <trkpt lat="43.71817" lon="2.52063">
        <ele>801.5</ele>
        <time>2020-03-27T10:53:12Z</time>
      </trkpt>
      <trkpt lat="43.71825" lon="2.52078">
        <ele>800.4</ele>
        <time>2020-03-27T10:53:14Z</time>
      </trkpt>
      <trkpt lat="43.71837" lon="2.52092">
        <ele>799.1</ele>
        <time>2020-03-27T10:53:16Z</time>
      </trkpt>
      <trkpt lat="43.71851" lon="2.52103">
        <ele>797.9</ele>
        <time>2020-03-27T10:53:18Z</time>
      </trkpt>
      <trkpt lat="43.71865" lon="2.52113">
        <ele>796.9</ele>
        <time>2020-03-27T10:53:20Z</time>
      </trkpt>
      <trkpt lat="43.71878" lon="2.52126">
        <ele>796</ele>
        <time>2020-03-27T10:53:22Z</time>
      </trkpt>
      <trkpt lat="43.71892" lon="2.52136">
        <ele>795.3</ele>
        <time>2020-03-27T10:53:24Z</time>
      </trkpt>
      <trkpt lat="43.71906" lon="2.52147">
        <ele>794.5</ele>
        <time>2020-03-27T10:53:26Z</time>
      </trkpt>
      <trkpt lat="43.7192" lon="2.52158">
        <ele>793.8</ele>
        <time>2020-03-27T10:53:28Z</time>
      </trkpt>
      <trkpt lat="43.71935" lon="2.52167">
        <ele>793.1</ele>
        <time>2020-03-27T10:53:30Z</time>
      </trkpt>
      <trkpt lat="43.71951" lon="2.52172">
        <ele>792.3</ele>
        <time>2020-03-27T10:53:32Z</time>
      </trkpt>
      <trkpt lat="43.71965" lon="2.52178">
        <ele>791.6</ele>
        <time>2020-03-27T10:53:34Z</time>
      </trkpt>
      <trkpt lat="43.71975" lon="2.5219">
        <ele>791</ele>
        <time>2020-03-27T10:53:36Z</time>
      </trkpt>
      <trkpt lat="43.71983" lon="2.52203">
        <ele>790.5</ele>
        <time>2020-03-27T10:53:38Z</time>
      </trkpt>
      <trkpt lat="43.7199" lon="2.52219">
        <ele>789.9</ele>
        <time>2020-03-27T10:53:40Z</time>
      </trkpt>
      <trkpt lat="43.71999" lon="2.52233">
        <ele>789.4</ele>
        <time>2020-03-27T10:53:42Z</time>
      </trkpt>
      <trkpt lat="43.72008" lon="2.5225">
        <ele>788.9</ele>
        <time>2020-03-27T10:53:44Z</time>
      </trkpt>
      <trkpt lat="43.72019" lon="2.52264">
        <ele>788.7</ele>
        <time>2020-03-27T10:53:46Z</time>
      </trkpt>
      <trkpt lat="43.7203" lon="2.52278">
        <ele>788.4</ele>
        <time>2020-03-27T10:53:48Z</time>
      </trkpt>
      <trkpt lat="43.72041" lon="2.52291">
        <ele>788.2</ele>
        <time>2020-03-27T10:53:50Z</time>
      </trkpt>
      <trkpt lat="43.72047" lon="2.52307">
        <ele>787.7</ele>
        <time>2020-03-27T10:53:52Z</time>
      </trkpt>
      <trkpt lat="43.72054" lon="2.52325">
        <ele>787.5</ele>
        <time>2020-03-27T10:53:54Z</time>
      </trkpt>
      <trkpt lat="43.7206" lon="2.52342">
        <ele>787.2</ele>
        <time>2020-03-27T10:53:56Z</time>
      </trkpt>
      <trkpt lat="43.72067" lon="2.52361">
        <ele>787</ele>
        <time>2020-03-27T10:53:58Z</time>
      </trkpt>
      <trkpt lat="43.72073" lon="2.5238">
        <ele>786.8</ele>
        <time>2020-03-27T10:54:00Z</time>
      </trkpt>
      <trkpt lat="43.72081" lon="2.52399">
        <ele>786.6</ele>
        <time>2020-03-27T10:54:02Z</time>
      </trkpt>
      <trkpt lat="43.72088" lon="2.52418">
        <ele>786.3</ele>
        <time>2020-03-27T10:54:04Z</time>
      </trkpt>
      <trkpt lat="43.72096" lon="2.52436">
        <ele>785.9</ele>
        <time>2020-03-27T10:54:06Z</time>
      </trkpt>
      <trkpt lat="43.72104" lon="2.52453">
        <ele>785.6</ele>
        <time>2020-03-27T10:54:08Z</time>
      </trkpt>
      <trkpt lat="43.72111" lon="2.52469">
        <ele>785.3</ele>
        <time>2020-03-27T10:54:10Z</time>
      </trkpt>
      <trkpt lat="43.72124" lon="2.52477">
        <ele>785</ele>
        <time>2020-03-27T10:54:12Z</time>
      </trkpt>
      <trkpt lat="43.72137" lon="2.52488">
        <ele>784.7</ele>
        <time>2020-03-27T10:54:14Z</time>
      </trkpt>
      <trkpt lat="43.72151" lon="2.52503">
        <ele>784.4</ele>
        <time>2020-03-27T10:54:16Z</time>
      </trkpt>
      <trkpt lat="43.72156" lon="2.52513">
        <ele>784.1</ele>
        <time>2020-03-27T10:54:17Z</time>
      </trkpt>
      <trkpt lat="43.7216" lon="2.52525">
        <ele>783.9</ele>
        <time>2020-03-27T10:54:18Z</time>
      </trkpt>
      <trkpt lat="43.72164" lon="2.52537">
        <ele>783.7</ele>
        <time>2020-03-27T10:54:19Z</time>
      </trkpt>
      <trkpt lat="43.72171" lon="2.52554">
        <ele>782.8</ele>
        <time>2020-03-27T10:54:21Z</time>
      </trkpt>
      <trkpt lat="43.72183" lon="2.52568">
        <ele>781.8</ele>
        <time>2020-03-27T10:54:23Z</time>
      </trkpt>
      <trkpt lat="43.72194" lon="2.5258">
        <ele>781.2</ele>
        <time>2020-03-27T10:54:25Z</time>
      </trkpt>
      <trkpt lat="43.722" lon="2.52591">
        <ele>780.2</ele>
        <time>2020-03-27T10:54:27Z</time>
      </trkpt>
      <trkpt lat="43.72204" lon="2.52607">
        <ele>779.7</ele>
        <time>2020-03-27T10:54:30Z</time>
      </trkpt>
      <trkpt lat="43.72213" lon="2.52603">
        <ele>779.2</ele>
        <time>2020-03-27T10:54:35Z</time>
      </trkpt>
      <trkpt lat="43.72219" lon="2.52591">
        <ele>778.6</ele>
        <time>2020-03-27T10:54:39Z</time>
      </trkpt>
      <trkpt lat="43.72224" lon="2.52578">
        <ele>778.1</ele>
        <time>2020-03-27T10:54:42Z</time>
      </trkpt>
      <trkpt lat="43.72229" lon="2.52567">
        <ele>777.6</ele>
        <time>2020-03-27T10:54:45Z</time>
      </trkpt>
      <trkpt lat="43.72234" lon="2.52556">
        <ele>777.1</ele>
        <time>2020-03-27T10:54:48Z</time>
      </trkpt>
      <trkpt lat="43.72239" lon="2.52541">
        <ele>776.6</ele>
        <time>2020-03-27T10:54:51Z</time>
      </trkpt>
      <trkpt lat="43.72246" lon="2.52526">
        <ele>774.4</ele>
        <time>2020-03-27T10:54:54Z</time>
      </trkpt>
      <trkpt lat="43.72253" lon="2.52516">
        <ele>772.9</ele>
        <time>2020-03-27T10:54:56Z</time>
      </trkpt>
      <trkpt lat="43.72255" lon="2.525">
        <ele>772.2</ele>
        <time>2020-03-27T10:54:59Z</time>
      </trkpt>
      <trkpt lat="43.72262" lon="2.52486">
        <ele>771.8</ele>
        <time>2020-03-27T10:55:02Z</time>
      </trkpt>
      <trkpt lat="43.72264" lon="2.52471">
        <ele>771.2</ele>
        <time>2020-03-27T10:55:07Z</time>
      </trkpt>
      <trkpt lat="43.72271" lon="2.52456">
        <ele>770.8</ele>
        <time>2020-03-27T10:55:11Z</time>
      </trkpt>
      <trkpt lat="43.72278" lon="2.52446">
        <ele>770.6</ele>
        <time>2020-03-27T10:55:14Z</time>
      </trkpt>
      <trkpt lat="43.7229" lon="2.52431">
        <ele>770.5</ele>
        <time>2020-03-27T10:55:16Z</time>
      </trkpt>
      <trkpt lat="43.72298" lon="2.52419">
        <ele>770.3</ele>
        <time>2020-03-27T10:55:18Z</time>
      </trkpt>
      <trkpt lat="43.72304" lon="2.52409">
        <ele>770.1</ele>
        <time>2020-03-27T10:55:20Z</time>
      </trkpt>
      <trkpt lat="43.72312" lon="2.52398">
        <ele>770</ele>
        <time>2020-03-27T10:55:23Z</time>
      </trkpt>
      <trkpt lat="43.72317" lon="2.52386">
        <ele>770</ele>
        <time>2020-03-27T10:55:26Z</time>
      </trkpt>
      <trkpt lat="43.7232" lon="2.52373">
        <ele>770.1</ele>
        <time>2020-03-27T10:55:29Z</time>
      </trkpt>
      <trkpt lat="43.72322" lon="2.52358">
        <ele>770.2</ele>
        <time>2020-03-27T10:55:32Z</time>
      </trkpt>
      <trkpt lat="43.72324" lon="2.52342">
        <ele>770.8</ele>
        <time>2020-03-27T10:55:35Z</time>
      </trkpt>
      <trkpt lat="43.72323" lon="2.52325">
        <ele>771.3</ele>
        <time>2020-03-27T10:55:38Z</time>
      </trkpt>
      <trkpt lat="43.72322" lon="2.52308">
        <ele>772</ele>
        <time>2020-03-27T10:55:41Z</time>
      </trkpt>
      <trkpt lat="43.7232" lon="2.52291">
        <ele>772.4</ele>
        <time>2020-03-27T10:55:44Z</time>
      </trkpt>
      <trkpt lat="43.72317" lon="2.52274">
        <ele>773</ele>
        <time>2020-03-27T10:55:47Z</time>
      </trkpt>
      <trkpt lat="43.72314" lon="2.52258">
        <ele>773.5</ele>
        <time>2020-03-27T10:55:50Z</time>
      </trkpt>
      <trkpt lat="43.7231" lon="2.52242">
        <ele>774.1</ele>
        <time>2020-03-27T10:55:53Z</time>
      </trkpt>
      <trkpt lat="43.72305" lon="2.52226">
        <ele>774.7</ele>
        <time>2020-03-27T10:55:56Z</time>
      </trkpt>
      <trkpt lat="43.72301" lon="2.52214">
        <ele>775</ele>
        <time>2020-03-27T10:55:58Z</time>
      </trkpt>
      <trkpt lat="43.72296" lon="2.52202">
        <ele>775.4</ele>
        <time>2020-03-27T10:56:00Z</time>
      </trkpt>
      <trkpt lat="43.72293" lon="2.5219">
        <ele>775.7</ele>
        <time>2020-03-27T10:56:02Z</time>
      </trkpt>
      <trkpt lat="43.72287" lon="2.52174">
        <ele>776.1</ele>
        <time>2020-03-27T10:56:05Z</time>
      </trkpt>
      <trkpt lat="43.72283" lon="2.52163">
        <ele>776.3</ele>
        <time>2020-03-27T10:56:07Z</time>
      </trkpt>
      <trkpt lat="43.7228" lon="2.52151">
        <ele>776.7</ele>
        <time>2020-03-27T10:56:09Z</time>
      </trkpt>
      <trkpt lat="43.72274" lon="2.52138">
        <ele>777.3</ele>
        <time>2020-03-27T10:56:11Z</time>
      </trkpt>
      <trkpt lat="43.72268" lon="2.52126">
        <ele>777.6</ele>
        <time>2020-03-27T10:56:13Z</time>
      </trkpt>
      <trkpt lat="43.72263" lon="2.52116">
        <ele>777.8</ele>
        <time>2020-03-27T10:56:15Z</time>
      </trkpt>
      <trkpt lat="43.72256" lon="2.52106">
        <ele>778.1</ele>
        <time>2020-03-27T10:56:17Z</time>
      </trkpt>
      <trkpt lat="43.72248" lon="2.52095">
        <ele>778.7</ele>
        <time>2020-03-27T10:56:19Z</time>
      </trkpt>
      <trkpt lat="43.72239" lon="2.52085">
        <ele>779.3</ele>
        <time>2020-03-27T10:56:21Z</time>
      </trkpt>
      <trkpt lat="43.72227" lon="2.52078">
        <ele>779.9</ele>
        <time>2020-03-27T10:56:23Z</time>
      </trkpt>
      <trkpt lat="43.72218" lon="2.52071">
        <ele>780.4</ele>
        <time>2020-03-27T10:56:25Z</time>
      </trkpt>
      <trkpt lat="43.72209" lon="2.52063">
        <ele>780.4</ele>
        <time>2020-03-27T10:56:27Z</time>
      </trkpt>
      <trkpt lat="43.72199" lon="2.52052">
        <ele>780.3</ele>
        <time>2020-03-27T10:56:29Z</time>
      </trkpt>
      <trkpt lat="43.72189" lon="2.52039">
        <ele>780.1</ele>
        <time>2020-03-27T10:56:31Z</time>
      </trkpt>
      <trkpt lat="43.72184" lon="2.52022">
        <ele>779.9</ele>
        <time>2020-03-27T10:56:33Z</time>
      </trkpt>
      <trkpt lat="43.72182" lon="2.52005">
        <ele>779.5</ele>
        <time>2020-03-27T10:56:35Z</time>
      </trkpt>
      <trkpt lat="43.7218" lon="2.51988">
        <ele>779.2</ele>
        <time>2020-03-27T10:56:37Z</time>
      </trkpt>
      <trkpt lat="43.7218" lon="2.51971">
        <ele>779</ele>
        <time>2020-03-27T10:56:39Z</time>
      </trkpt>
      <trkpt lat="43.72184" lon="2.51955">
        <ele>779</ele>
        <time>2020-03-27T10:56:41Z</time>
      </trkpt>
      <trkpt lat="43.72188" lon="2.51941">
        <ele>778.9</ele>
        <time>2020-03-27T10:56:43Z</time>
      </trkpt>
      <trkpt lat="43.72193" lon="2.51928">
        <ele>778.8</ele>
        <time>2020-03-27T10:56:45Z</time>
      </trkpt>
      <trkpt lat="43.722" lon="2.51918">
        <ele>778.6</ele>
        <time>2020-03-27T10:56:47Z</time>
      </trkpt>
      <trkpt lat="43.72206" lon="2.51908">
        <ele>778.3</ele>
        <time>2020-03-27T10:56:49Z</time>
      </trkpt>
      <trkpt lat="43.7221" lon="2.51896">
        <ele>777.8</ele>
        <time>2020-03-27T10:56:51Z</time>
      </trkpt>
      <trkpt lat="43.72214" lon="2.51883">
        <ele>777.4</ele>
        <time>2020-03-27T10:56:53Z</time>
      </trkpt>
      <trkpt lat="43.72218" lon="2.51868">
        <ele>777.1</ele>
        <time>2020-03-27T10:56:55Z</time>
      </trkpt>
      <trkpt lat="43.7222" lon="2.51852">
        <ele>776.6</ele>
        <time>2020-03-27T10:56:57Z</time>
      </trkpt>
      <trkpt lat="43.72221" lon="2.51833">
        <ele>776.2</ele>
        <time>2020-03-27T10:56:59Z</time>
      </trkpt>
      <trkpt lat="43.72222" lon="2.51814">
        <ele>775.7</ele>
        <time>2020-03-27T10:57:01Z</time>
      </trkpt>
      <trkpt lat="43.72222" lon="2.51794">
        <ele>775.2</ele>
        <time>2020-03-27T10:57:03Z</time>
      </trkpt>
      <trkpt lat="43.72221" lon="2.51774">
        <ele>774.7</ele>
        <time>2020-03-27T10:57:05Z</time>
      </trkpt>
      <trkpt lat="43.72219" lon="2.51755">
        <ele>774.1</ele>
        <time>2020-03-27T10:57:07Z</time>
      </trkpt>
      <trkpt lat="43.72218" lon="2.51735">
        <ele>773.5</ele>
        <time>2020-03-27T10:57:09Z</time>
      </trkpt>
      <trkpt lat="43.72216" lon="2.51715">
        <ele>772.9</ele>
        <time>2020-03-27T10:57:11Z</time>
      </trkpt>
      <trkpt lat="43.72213" lon="2.51696">
        <ele>772.3</ele>
        <time>2020-03-27T10:57:13Z</time>
      </trkpt>
      <trkpt lat="43.7221" lon="2.51678">
        <ele>771.5</ele>
        <time>2020-03-27T10:57:15Z</time>
      </trkpt>
      <trkpt lat="43.72206" lon="2.5166">
        <ele>770.9</ele>
        <time>2020-03-27T10:57:17Z</time>
      </trkpt>
      <trkpt lat="43.72203" lon="2.51644">
        <ele>770.3</ele>
        <time>2020-03-27T10:57:19Z</time>
      </trkpt>
      <trkpt lat="43.72201" lon="2.51632">
        <ele>769.8</ele>
        <time>2020-03-27T10:57:21Z</time>
      </trkpt>
      <trkpt lat="43.72198" lon="2.51616">
        <ele>768.9</ele>
        <time>2020-03-27T10:57:24Z</time>
      </trkpt>
      <trkpt lat="43.72196" lon="2.51597">
        <ele>768</ele>
        <time>2020-03-27T10:57:27Z</time>
      </trkpt>
      <trkpt lat="43.72194" lon="2.51583">
        <ele>767.5</ele>
        <time>2020-03-27T10:57:29Z</time>
      </trkpt>
      <trkpt lat="43.72191" lon="2.51568">
        <ele>767</ele>
        <time>2020-03-27T10:57:31Z</time>
      </trkpt>
      <trkpt lat="43.72187" lon="2.51552">
        <ele>766.5</ele>
        <time>2020-03-27T10:57:33Z</time>
      </trkpt>
      <trkpt lat="43.72184" lon="2.51533">
        <ele>765.9</ele>
        <time>2020-03-27T10:57:35Z</time>
      </trkpt>
      <trkpt lat="43.72179" lon="2.51513">
        <ele>765.4</ele>
        <time>2020-03-27T10:57:37Z</time>
      </trkpt>
      <trkpt lat="43.72175" lon="2.51493">
        <ele>764.9</ele>
        <time>2020-03-27T10:57:39Z</time>
      </trkpt>
      <trkpt lat="43.72171" lon="2.51472">
        <ele>764.3</ele>
        <time>2020-03-27T10:57:41Z</time>
      </trkpt>
      <trkpt lat="43.72168" lon="2.5145">
        <ele>763.5</ele>
        <time>2020-03-27T10:57:43Z</time>
      </trkpt>
      <trkpt lat="43.72167" lon="2.51427">
        <ele>762.7</ele>
        <time>2020-03-27T10:57:45Z</time>
      </trkpt>
      <trkpt lat="43.72168" lon="2.51404">
        <ele>761.8</ele>
        <time>2020-03-27T10:57:47Z</time>
      </trkpt>
      <trkpt lat="43.72172" lon="2.51379">
        <ele>760.8</ele>
        <time>2020-03-27T10:57:49Z</time>
      </trkpt>
      <trkpt lat="43.72173" lon="2.51367">
        <ele>760.4</ele>
        <time>2020-03-27T10:57:50Z</time>
      </trkpt>
      <trkpt lat="43.72174" lon="2.51354">
        <ele>760</ele>
        <time>2020-03-27T10:57:51Z</time>
      </trkpt>
      <trkpt lat="43.72175" lon="2.51341">
        <ele>759.6</ele>
        <time>2020-03-27T10:57:52Z</time>
      </trkpt>
      <trkpt lat="43.72176" lon="2.51328">
        <ele>759.2</ele>
        <time>2020-03-27T10:57:53Z</time>
      </trkpt>
      <trkpt lat="43.72176" lon="2.51315">
        <ele>758.7</ele>
        <time>2020-03-27T10:57:54Z</time>
      </trkpt>
      <trkpt lat="43.72176" lon="2.51301">
        <ele>758.1</ele>
        <time>2020-03-27T10:57:55Z</time>
      </trkpt>
      <trkpt lat="43.72177" lon="2.51288">
        <ele>757.6</ele>
        <time>2020-03-27T10:57:56Z</time>
      </trkpt>
      <trkpt lat="43.72177" lon="2.51276">
        <ele>757</ele>
        <time>2020-03-27T10:57:57Z</time>
      </trkpt>
      <trkpt lat="43.72179" lon="2.51252">
        <ele>755.9</ele>
        <time>2020-03-27T10:57:59Z</time>
      </trkpt>
      <trkpt lat="43.72181" lon="2.51228">
        <ele>754.8</ele>
        <time>2020-03-27T10:58:01Z</time>
      </trkpt>
      <trkpt lat="43.72185" lon="2.51205">
        <ele>753.8</ele>
        <time>2020-03-27T10:58:03Z</time>
      </trkpt>
      <trkpt lat="43.72189" lon="2.51182">
        <ele>752.8</ele>
        <time>2020-03-27T10:58:05Z</time>
      </trkpt>
      <trkpt lat="43.72195" lon="2.51162">
        <ele>752</ele>
        <time>2020-03-27T10:58:07Z</time>
      </trkpt>
      <trkpt lat="43.72202" lon="2.51143">
        <ele>751.1</ele>
        <time>2020-03-27T10:58:09Z</time>
      </trkpt>
      <trkpt lat="43.72209" lon="2.51123">
        <ele>750.2</ele>
        <time>2020-03-27T10:58:11Z</time>
      </trkpt>
      <trkpt lat="43.72211" lon="2.51104">
        <ele>749.3</ele>
        <time>2020-03-27T10:58:13Z</time>
      </trkpt>
      <trkpt lat="43.72213" lon="2.51084">
        <ele>748.1</ele>
        <time>2020-03-27T10:58:15Z</time>
      </trkpt>
      <trkpt lat="43.72215" lon="2.51067">
        <ele>746.9</ele>
        <time>2020-03-27T10:58:17Z</time>
      </trkpt>
      <trkpt lat="43.72214" lon="2.51048">
        <ele>745.5</ele>
        <time>2020-03-27T10:58:19Z</time>
      </trkpt>
      <trkpt lat="43.72214" lon="2.51031">
        <ele>744.2</ele>
        <time>2020-03-27T10:58:21Z</time>
      </trkpt>
      <trkpt lat="43.72212" lon="2.51012">
        <ele>743.3</ele>
        <time>2020-03-27T10:58:23Z</time>
      </trkpt>
      <trkpt lat="43.7221" lon="2.50994">
        <ele>742.7</ele>
        <time>2020-03-27T10:58:25Z</time>
      </trkpt>
      <trkpt lat="43.72207" lon="2.50975">
        <ele>742.1</ele>
        <time>2020-03-27T10:58:27Z</time>
      </trkpt>
      <trkpt lat="43.72202" lon="2.50955">
        <ele>741.5</ele>
        <time>2020-03-27T10:58:29Z</time>
      </trkpt>
      <trkpt lat="43.72196" lon="2.50934">
        <ele>740.8</ele>
        <time>2020-03-27T10:58:31Z</time>
      </trkpt>
      <trkpt lat="43.7219" lon="2.50911">
        <ele>740.1</ele>
        <time>2020-03-27T10:58:33Z</time>
      </trkpt>
      <trkpt lat="43.72187" lon="2.50888">
        <ele>739.1</ele>
        <time>2020-03-27T10:58:35Z</time>
      </trkpt>
      <trkpt lat="43.72183" lon="2.50867">
        <ele>738</ele>
        <time>2020-03-27T10:58:37Z</time>
      </trkpt>
      <trkpt lat="43.72179" lon="2.50847">
        <ele>737.1</ele>
        <time>2020-03-27T10:58:39Z</time>
      </trkpt>
      <trkpt lat="43.72174" lon="2.50827">
        <ele>736.2</ele>
        <time>2020-03-27T10:58:41Z</time>
      </trkpt>
      <trkpt lat="43.72171" lon="2.50811">
        <ele>735.3</ele>
        <time>2020-03-27T10:58:43Z</time>
      </trkpt>
      <trkpt lat="43.72166" lon="2.50796">
        <ele>734.3</ele>
        <time>2020-03-27T10:58:45Z</time>
      </trkpt>
      <trkpt lat="43.72165" lon="2.50779">
        <ele>733.4</ele>
        <time>2020-03-27T10:58:47Z</time>
      </trkpt>
      <trkpt lat="43.72159" lon="2.50763">
        <ele>732.7</ele>
        <time>2020-03-27T10:58:49Z</time>
      </trkpt>
      <trkpt lat="43.7215" lon="2.50748">
        <ele>732.1</ele>
        <time>2020-03-27T10:58:51Z</time>
      </trkpt>
      <trkpt lat="43.72145" lon="2.50735">
        <ele>731.6</ele>
        <time>2020-03-27T10:58:53Z</time>
      </trkpt>
      <trkpt lat="43.7214" lon="2.5072">
        <ele>731.2</ele>
        <time>2020-03-27T10:58:55Z</time>
      </trkpt>
      <trkpt lat="43.72135" lon="2.50702">
        <ele>730.8</ele>
        <time>2020-03-27T10:58:57Z</time>
      </trkpt>
      <trkpt lat="43.72131" lon="2.50682">
        <ele>730.2</ele>
        <time>2020-03-27T10:58:59Z</time>
      </trkpt>
      <trkpt lat="43.72126" lon="2.50662">
        <ele>729.5</ele>
        <time>2020-03-27T10:59:01Z</time>
      </trkpt>
      <trkpt lat="43.72118" lon="2.50639">
        <ele>728.8</ele>
        <time>2020-03-27T10:59:03Z</time>
      </trkpt>
      <trkpt lat="43.72112" lon="2.50618">
        <ele>728.3</ele>
        <time>2020-03-27T10:59:05Z</time>
      </trkpt>
      <trkpt lat="43.72106" lon="2.50597">
        <ele>727.6</ele>
        <time>2020-03-27T10:59:07Z</time>
      </trkpt>
      <trkpt lat="43.72098" lon="2.50576">
        <ele>726.8</ele>
        <time>2020-03-27T10:59:09Z</time>
      </trkpt>
      <trkpt lat="43.72088" lon="2.50556">
        <ele>725.9</ele>
        <time>2020-03-27T10:59:11Z</time>
      </trkpt>
      <trkpt lat="43.72084" lon="2.50545">
        <ele>725.4</ele>
        <time>2020-03-27T10:59:12Z</time>
      </trkpt>
      <trkpt lat="43.72077" lon="2.50523">
        <ele>724.5</ele>
        <time>2020-03-27T10:59:14Z</time>
      </trkpt>
      <trkpt lat="43.72073" lon="2.50501">
        <ele>723.4</ele>
        <time>2020-03-27T10:59:16Z</time>
      </trkpt>
      <trkpt lat="43.72071" lon="2.50478">
        <ele>722.2</ele>
        <time>2020-03-27T10:59:18Z</time>
      </trkpt>
      <trkpt lat="43.7207" lon="2.50456">
        <ele>721</ele>
        <time>2020-03-27T10:59:20Z</time>
      </trkpt>
      <trkpt lat="43.72071" lon="2.50443">
        <ele>720.4</ele>
        <time>2020-03-27T10:59:21Z</time>
      </trkpt>
      <trkpt lat="43.72071" lon="2.50431">
        <ele>719.8</ele>
        <time>2020-03-27T10:59:22Z</time>
      </trkpt>
      <trkpt lat="43.72073" lon="2.50417">
        <ele>719.2</ele>
        <time>2020-03-27T10:59:23Z</time>
      </trkpt>
      <trkpt lat="43.72075" lon="2.50403">
        <ele>718.5</ele>
        <time>2020-03-27T10:59:24Z</time>
      </trkpt>
      <trkpt lat="43.72078" lon="2.5039">
        <ele>717.9</ele>
        <time>2020-03-27T10:59:25Z</time>
      </trkpt>
      <trkpt lat="43.72079" lon="2.50375">
        <ele>717.3</ele>
        <time>2020-03-27T10:59:26Z</time>
      </trkpt>
      <trkpt lat="43.7208" lon="2.50361">
        <ele>716.6</ele>
        <time>2020-03-27T10:59:27Z</time>
      </trkpt>
      <trkpt lat="43.72081" lon="2.50347">
        <ele>716</ele>
        <time>2020-03-27T10:59:28Z</time>
      </trkpt>
      <trkpt lat="43.7208" lon="2.50332">
        <ele>715.4</ele>
        <time>2020-03-27T10:59:29Z</time>
      </trkpt>
      <trkpt lat="43.72077" lon="2.50318">
        <ele>714.8</ele>
        <time>2020-03-27T10:59:30Z</time>
      </trkpt>
      <trkpt lat="43.72074" lon="2.50304">
        <ele>714.3</ele>
        <time>2020-03-27T10:59:31Z</time>
      </trkpt>
      <trkpt lat="43.72071" lon="2.50291">
        <ele>713.8</ele>
        <time>2020-03-27T10:59:32Z</time>
      </trkpt>
      <trkpt lat="43.7207" lon="2.50278">
        <ele>713.2</ele>
        <time>2020-03-27T10:59:33Z</time>
      </trkpt>
      <trkpt lat="43.72068" lon="2.50255">
        <ele>712.1</ele>
        <time>2020-03-27T10:59:35Z</time>
      </trkpt>
      <trkpt lat="43.72067" lon="2.50237">
        <ele>711.1</ele>
        <time>2020-03-27T10:59:37Z</time>
      </trkpt>
      <trkpt lat="43.72066" lon="2.50222">
        <ele>710.2</ele>
        <time>2020-03-27T10:59:39Z</time>
      </trkpt>
      <trkpt lat="43.72064" lon="2.50206">
        <ele>709.5</ele>
        <time>2020-03-27T10:59:42Z</time>
      </trkpt>
      <trkpt lat="43.72062" lon="2.5019">
        <ele>709.2</ele>
        <time>2020-03-27T10:59:46Z</time>
      </trkpt>
      <trkpt lat="43.7206" lon="2.50178">
        <ele>709</ele>
        <time>2020-03-27T10:59:49Z</time>
      </trkpt>
      <trkpt lat="43.7206" lon="2.50162">
        <ele>708.8</ele>
        <time>2020-03-27T10:59:53Z</time>
      </trkpt>
      <trkpt lat="43.72058" lon="2.50147">
        <ele>708.5</ele>
        <time>2020-03-27T10:59:57Z</time>
      </trkpt>
      <trkpt lat="43.72057" lon="2.50134">
        <ele>708.3</ele>
        <time>2020-03-27T11:00:00Z</time>
      </trkpt>
      <trkpt lat="43.72056" lon="2.5012">
        <ele>708.1</ele>
        <time>2020-03-27T11:00:03Z</time>
      </trkpt>
      <trkpt lat="43.72054" lon="2.50107">
        <ele>708</ele>
        <time>2020-03-27T11:00:06Z</time>
      </trkpt>
      <trkpt lat="43.72054" lon="2.50094">
        <ele>707.8</ele>
        <time>2020-03-27T11:00:09Z</time>
      </trkpt>
      <trkpt lat="43.72052" lon="2.50076">
        <ele>706.6</ele>
        <time>2020-03-27T11:00:12Z</time>
      </trkpt>
      <trkpt lat="43.72049" lon="2.50064">
        <ele>706.1</ele>
        <time>2020-03-27T11:00:14Z</time>
      </trkpt>
      <trkpt lat="43.72046" lon="2.50046">
        <ele>705.4</ele>
        <time>2020-03-27T11:00:17Z</time>
      </trkpt>
      <trkpt lat="43.72042" lon="2.50028">
        <ele>705</ele>
        <time>2020-03-27T11:00:20Z</time>
      </trkpt>
      <trkpt lat="43.72038" lon="2.50011">
        <ele>704.7</ele>
        <time>2020-03-27T11:00:23Z</time>
      </trkpt>
      <trkpt lat="43.72035" lon="2.49995">
        <ele>704.6</ele>
        <time>2020-03-27T11:00:26Z</time>
      </trkpt>
      <trkpt lat="43.72033" lon="2.49981">
        <ele>704.6</ele>
        <time>2020-03-27T11:00:29Z</time>
      </trkpt>
      <trkpt lat="43.72032" lon="2.49966">
        <ele>704.6</ele>
        <time>2020-03-27T11:00:32Z</time>
      </trkpt>
      <trkpt lat="43.7203" lon="2.49948">
        <ele>704.6</ele>
        <time>2020-03-27T11:00:35Z</time>
      </trkpt>
      <trkpt lat="43.7203" lon="2.49931">
        <ele>704.6</ele>
        <time>2020-03-27T11:00:38Z</time>
      </trkpt>
      <trkpt lat="43.7203" lon="2.49915">
        <ele>704.7</ele>
        <time>2020-03-27T11:00:41Z</time>
      </trkpt>
      <trkpt lat="43.7203" lon="2.49899">
        <ele>704.8</ele>
        <time>2020-03-27T11:00:44Z</time>
      </trkpt>
      <trkpt lat="43.72031" lon="2.49883">
        <ele>704.9</ele>
        <time>2020-03-27T11:00:47Z</time>
      </trkpt>
      <trkpt lat="43.72033" lon="2.49869">
        <ele>705</ele>
        <time>2020-03-27T11:00:50Z</time>
      </trkpt>
      <trkpt lat="43.72037" lon="2.49855">
        <ele>705.1</ele>
        <time>2020-03-27T11:00:53Z</time>
      </trkpt>
      <trkpt lat="43.72041" lon="2.49841">
        <ele>705.2</ele>
        <time>2020-03-27T11:00:56Z</time>
      </trkpt>
      <trkpt lat="43.72044" lon="2.49829">
        <ele>705.3</ele>
        <time>2020-03-27T11:00:59Z</time>
      </trkpt>
      <trkpt lat="43.72048" lon="2.49816">
        <ele>705.4</ele>
        <time>2020-03-27T11:01:02Z</time>
      </trkpt>
      <trkpt lat="43.72053" lon="2.49804">
        <ele>705.5</ele>
        <time>2020-03-27T11:01:05Z</time>
      </trkpt>
      <trkpt lat="43.72056" lon="2.49792">
        <ele>705.7</ele>
        <time>2020-03-27T11:01:08Z</time>
      </trkpt>
      <trkpt lat="43.72061" lon="2.49777">
        <ele>705.9</ele>
        <time>2020-03-27T11:01:12Z</time>
      </trkpt>
      <trkpt lat="43.72066" lon="2.49766">
        <ele>706.1</ele>
        <time>2020-03-27T11:01:15Z</time>
      </trkpt>
      <trkpt lat="43.72069" lon="2.49751">
        <ele>706.3</ele>
        <time>2020-03-27T11:01:18Z</time>
      </trkpt>
      <trkpt lat="43.72074" lon="2.49737">
        <ele>706.8</ele>
        <time>2020-03-27T11:01:21Z</time>
      </trkpt>
      <trkpt lat="43.72079" lon="2.4972">
        <ele>708</ele>
        <time>2020-03-27T11:01:24Z</time>
      </trkpt>
      <trkpt lat="43.72081" lon="2.49707">
        <ele>708.8</ele>
        <time>2020-03-27T11:01:26Z</time>
      </trkpt>
      <trkpt lat="43.72084" lon="2.49693">
        <ele>709.3</ele>
        <time>2020-03-27T11:01:28Z</time>
      </trkpt>
      <trkpt lat="43.72086" lon="2.49678">
        <ele>709.8</ele>
        <time>2020-03-27T11:01:30Z</time>
      </trkpt>
      <trkpt lat="43.72092" lon="2.49664">
        <ele>710.1</ele>
        <time>2020-03-27T11:01:32Z</time>
      </trkpt>
      <trkpt lat="43.72097" lon="2.4965">
        <ele>710.3</ele>
        <time>2020-03-27T11:01:34Z</time>
      </trkpt>
      <trkpt lat="43.72102" lon="2.49635">
        <ele>710.3</ele>
        <time>2020-03-27T11:01:36Z</time>
      </trkpt>
      <trkpt lat="43.72108" lon="2.4962">
        <ele>710.2</ele>
        <time>2020-03-27T11:01:38Z</time>
      </trkpt>
      <trkpt lat="43.72114" lon="2.49605">
        <ele>710.1</ele>
        <time>2020-03-27T11:01:40Z</time>
      </trkpt>
      <trkpt lat="43.72119" lon="2.49589">
        <ele>709.9</ele>
        <time>2020-03-27T11:01:42Z</time>
      </trkpt>
      <trkpt lat="43.72126" lon="2.49575">
        <ele>709.8</ele>
        <time>2020-03-27T11:01:44Z</time>
      </trkpt>
      <trkpt lat="43.72132" lon="2.4956">
        <ele>709.6</ele>
        <time>2020-03-27T11:01:46Z</time>
      </trkpt>
      <trkpt lat="43.72137" lon="2.49543">
        <ele>709.5</ele>
        <time>2020-03-27T11:01:48Z</time>
      </trkpt>
      <trkpt lat="43.72144" lon="2.49529">
        <ele>709.3</ele>
        <time>2020-03-27T11:01:50Z</time>
      </trkpt>
      <trkpt lat="43.72151" lon="2.49514">
        <ele>709.1</ele>
        <time>2020-03-27T11:01:52Z</time>
      </trkpt>
      <trkpt lat="43.72157" lon="2.49497">
        <ele>709</ele>
        <time>2020-03-27T11:01:54Z</time>
      </trkpt>
      <trkpt lat="43.72164" lon="2.4948">
        <ele>709.2</ele>
        <time>2020-03-27T11:01:56Z</time>
      </trkpt>
      <trkpt lat="43.72172" lon="2.49464">
        <ele>709.4</ele>
        <time>2020-03-27T11:01:58Z</time>
      </trkpt>
      <trkpt lat="43.72181" lon="2.49449">
        <ele>709.6</ele>
        <time>2020-03-27T11:02:00Z</time>
      </trkpt>
      <trkpt lat="43.72192" lon="2.49434">
        <ele>709.4</ele>
        <time>2020-03-27T11:02:02Z</time>
      </trkpt>
      <trkpt lat="43.72203" lon="2.49419">
        <ele>709.1</ele>
        <time>2020-03-27T11:02:04Z</time>
      </trkpt>
      <trkpt lat="43.72215" lon="2.49405">
        <ele>708.6</ele>
        <time>2020-03-27T11:02:06Z</time>
      </trkpt>
      <trkpt lat="43.72226" lon="2.49391">
        <ele>708</ele>
        <time>2020-03-27T11:02:08Z</time>
      </trkpt>
      <trkpt lat="43.72238" lon="2.49376">
        <ele>707.4</ele>
        <time>2020-03-27T11:02:10Z</time>
      </trkpt>
      <trkpt lat="43.72251" lon="2.49359">
        <ele>706.8</ele>
        <time>2020-03-27T11:02:12Z</time>
      </trkpt>
      <trkpt lat="43.72258" lon="2.49351">
        <ele>706.5</ele>
        <time>2020-03-27T11:02:13Z</time>
      </trkpt>
      <trkpt lat="43.72264" lon="2.49342">
        <ele>706.2</ele>
        <time>2020-03-27T11:02:14Z</time>
      </trkpt>
      <trkpt lat="43.72271" lon="2.49333">
        <ele>705.8</ele>
        <time>2020-03-27T11:02:15Z</time>
      </trkpt>
      <trkpt lat="43.72278" lon="2.49325">
        <ele>705.5</ele>
        <time>2020-03-27T11:02:16Z</time>
      </trkpt>
      <trkpt lat="43.72285" lon="2.49317">
        <ele>705.2</ele>
        <time>2020-03-27T11:02:17Z</time>
      </trkpt>
      <trkpt lat="43.72299" lon="2.49303">
        <ele>704.2</ele>
        <time>2020-03-27T11:02:19Z</time>
      </trkpt>
      <trkpt lat="43.72314" lon="2.49289">
        <ele>703.2</ele>
        <time>2020-03-27T11:02:21Z</time>
      </trkpt>
      <trkpt lat="43.72321" lon="2.49282">
        <ele>702.7</ele>
        <time>2020-03-27T11:02:22Z</time>
      </trkpt>
      <trkpt lat="43.7233" lon="2.49276">
        <ele>702.2</ele>
        <time>2020-03-27T11:02:23Z</time>
      </trkpt>
      <trkpt lat="43.72338" lon="2.49268">
        <ele>701.6</ele>
        <time>2020-03-27T11:02:24Z</time>
      </trkpt>
      <trkpt lat="43.72345" lon="2.4926">
        <ele>701</ele>
        <time>2020-03-27T11:02:25Z</time>
      </trkpt>
      <trkpt lat="43.72353" lon="2.49252">
        <ele>700.4</ele>
        <time>2020-03-27T11:02:26Z</time>
      </trkpt>
      <trkpt lat="43.72361" lon="2.49244">
        <ele>699.8</ele>
        <time>2020-03-27T11:02:27Z</time>
      </trkpt>
      <trkpt lat="43.72369" lon="2.49237">
        <ele>699.1</ele>
        <time>2020-03-27T11:02:28Z</time>
      </trkpt>
      <trkpt lat="43.72377" lon="2.4923">
        <ele>698.4</ele>
        <time>2020-03-27T11:02:29Z</time>
      </trkpt>
      <trkpt lat="43.72385" lon="2.49222">
        <ele>697.7</ele>
        <time>2020-03-27T11:02:30Z</time>
      </trkpt>
      <trkpt lat="43.72393" lon="2.49213">
        <ele>697</ele>
        <time>2020-03-27T11:02:31Z</time>
      </trkpt>
      <trkpt lat="43.72401" lon="2.49204">
        <ele>696.3</ele>
        <time>2020-03-27T11:02:32Z</time>
      </trkpt>
      <trkpt lat="43.72409" lon="2.49196">
        <ele>695.6</ele>
        <time>2020-03-27T11:02:33Z</time>
      </trkpt>
      <trkpt lat="43.72416" lon="2.49188">
        <ele>694.9</ele>
        <time>2020-03-27T11:02:34Z</time>
      </trkpt>
      <trkpt lat="43.72422" lon="2.49179">
        <ele>694.1</ele>
        <time>2020-03-27T11:02:35Z</time>
      </trkpt>
      <trkpt lat="43.72435" lon="2.49162">
        <ele>692.6</ele>
        <time>2020-03-27T11:02:37Z</time>
      </trkpt>
      <trkpt lat="43.72448" lon="2.49146">
        <ele>691</ele>
        <time>2020-03-27T11:02:39Z</time>
      </trkpt>
      <trkpt lat="43.72461" lon="2.49128">
        <ele>689.6</ele>
        <time>2020-03-27T11:02:41Z</time>
      </trkpt>
      <trkpt lat="43.72475" lon="2.49114">
        <ele>688.3</ele>
        <time>2020-03-27T11:02:43Z</time>
      </trkpt>
      <trkpt lat="43.72487" lon="2.49098">
        <ele>686.9</ele>
        <time>2020-03-27T11:02:45Z</time>
      </trkpt>
      <trkpt lat="43.72497" lon="2.4908">
        <ele>685.6</ele>
        <time>2020-03-27T11:02:47Z</time>
      </trkpt>
      <trkpt lat="43.72503" lon="2.49059">
        <ele>684.2</ele>
        <time>2020-03-27T11:02:49Z</time>
      </trkpt>
      <trkpt lat="43.72507" lon="2.49039">
        <ele>682.8</ele>
        <time>2020-03-27T11:02:51Z</time>
      </trkpt>
      <trkpt lat="43.72511" lon="2.4902">
        <ele>681.6</ele>
        <time>2020-03-27T11:02:53Z</time>
      </trkpt>
      <trkpt lat="43.72513" lon="2.49003">
        <ele>680.3</ele>
        <time>2020-03-27T11:02:55Z</time>
      </trkpt>
      <trkpt lat="43.72516" lon="2.48985">
        <ele>679.3</ele>
        <time>2020-03-27T11:02:57Z</time>
      </trkpt>
      <trkpt lat="43.72518" lon="2.48968">
        <ele>678.3</ele>
        <time>2020-03-27T11:02:59Z</time>
      </trkpt>
      <trkpt lat="43.72521" lon="2.48952">
        <ele>677.6</ele>
        <time>2020-03-27T11:03:01Z</time>
      </trkpt>
      <trkpt lat="43.72525" lon="2.48938">
        <ele>676.8</ele>
        <time>2020-03-27T11:03:03Z</time>
      </trkpt>
      <trkpt lat="43.72529" lon="2.48924">
        <ele>676</ele>
        <time>2020-03-27T11:03:05Z</time>
      </trkpt>
      <trkpt lat="43.72535" lon="2.4891">
        <ele>675.3</ele>
        <time>2020-03-27T11:03:07Z</time>
      </trkpt>
      <trkpt lat="43.7254" lon="2.48897">
        <ele>674.5</ele>
        <time>2020-03-27T11:03:09Z</time>
      </trkpt>
      <trkpt lat="43.72545" lon="2.48883">
        <ele>673.7</ele>
        <time>2020-03-27T11:03:11Z</time>
      </trkpt>
      <trkpt lat="43.7255" lon="2.48868">
        <ele>672.9</ele>
        <time>2020-03-27T11:03:13Z</time>
      </trkpt>
      <trkpt lat="43.72557" lon="2.48853">
        <ele>672.2</ele>
        <time>2020-03-27T11:03:15Z</time>
      </trkpt>
      <trkpt lat="43.72563" lon="2.48839">
        <ele>671.7</ele>
        <time>2020-03-27T11:03:17Z</time>
      </trkpt>
      <trkpt lat="43.72567" lon="2.48825">
        <ele>671.2</ele>
        <time>2020-03-27T11:03:19Z</time>
      </trkpt>
      <trkpt lat="43.72572" lon="2.48812">
        <ele>670.8</ele>
        <time>2020-03-27T11:03:21Z</time>
      </trkpt>
      <trkpt lat="43.72577" lon="2.48797">
        <ele>670.7</ele>
        <time>2020-03-27T11:03:23Z</time>
      </trkpt>
      <trkpt lat="43.72584" lon="2.48782">
        <ele>670.8</ele>
        <time>2020-03-27T11:03:25Z</time>
      </trkpt>
      <trkpt lat="43.7259" lon="2.48766">
        <ele>671</ele>
        <time>2020-03-27T11:03:27Z</time>
      </trkpt>
      <trkpt lat="43.72595" lon="2.4875">
        <ele>671.1</ele>
        <time>2020-03-27T11:03:29Z</time>
      </trkpt>
      <trkpt lat="43.72601" lon="2.48733">
        <ele>671.1</ele>
        <time>2020-03-27T11:03:31Z</time>
      </trkpt>
      <trkpt lat="43.72605" lon="2.48716">
        <ele>670.9</ele>
        <time>2020-03-27T11:03:33Z</time>
      </trkpt>
      <trkpt lat="43.72607" lon="2.48701">
        <ele>670.7</ele>
        <time>2020-03-27T11:03:35Z</time>
      </trkpt>
      <trkpt lat="43.7261" lon="2.48686">
        <ele>670.7</ele>
        <time>2020-03-27T11:03:37Z</time>
      </trkpt>
      <trkpt lat="43.72614" lon="2.48673">
        <ele>670.5</ele>
        <time>2020-03-27T11:03:39Z</time>
      </trkpt>
      <trkpt lat="43.72614" lon="2.48658">
        <ele>670.5</ele>
        <time>2020-03-27T11:03:41Z</time>
      </trkpt>
      <trkpt lat="43.72616" lon="2.48645">
        <ele>670.5</ele>
        <time>2020-03-27T11:03:43Z</time>
      </trkpt>
      <trkpt lat="43.72613" lon="2.48628">
        <ele>670.7</ele>
        <time>2020-03-27T11:03:46Z</time>
      </trkpt>
      <trkpt lat="43.7261" lon="2.48612">
        <ele>670.8</ele>
        <time>2020-03-27T11:03:49Z</time>
      </trkpt>
      <trkpt lat="43.72607" lon="2.48597">
        <ele>670.9</ele>
        <time>2020-03-27T11:03:52Z</time>
      </trkpt>
      <trkpt lat="43.72604" lon="2.48582">
        <ele>670.9</ele>
        <time>2020-03-27T11:03:55Z</time>
      </trkpt>
      <trkpt lat="43.72604" lon="2.48569">
        <ele>671</ele>
        <time>2020-03-27T11:03:58Z</time>
      </trkpt>
      <trkpt lat="43.72607" lon="2.48555">
        <ele>671.1</ele>
        <time>2020-03-27T11:04:02Z</time>
      </trkpt>
      <trkpt lat="43.7261" lon="2.48542">
        <ele>671.2</ele>
        <time>2020-03-27T11:04:07Z</time>
      </trkpt>
      <trkpt lat="43.72612" lon="2.4853">
        <ele>671.3</ele>
        <time>2020-03-27T11:04:11Z</time>
      </trkpt>
      <trkpt lat="43.72614" lon="2.48517">
        <ele>671.5</ele>
        <time>2020-03-27T11:04:15Z</time>
      </trkpt>
      <trkpt lat="43.72617" lon="2.48504">
        <ele>671.6</ele>
        <time>2020-03-27T11:04:19Z</time>
      </trkpt>
      <trkpt lat="43.7262" lon="2.48487">
        <ele>671.7</ele>
        <time>2020-03-27T11:04:23Z</time>
      </trkpt>
      <trkpt lat="43.72623" lon="2.48473">
        <ele>671.8</ele>
        <time>2020-03-27T11:04:26Z</time>
      </trkpt>
      <trkpt lat="43.72626" lon="2.48459">
        <ele>671.9</ele>
        <time>2020-03-27T11:04:29Z</time>
      </trkpt>
      <trkpt lat="43.72629" lon="2.48445">
        <ele>672</ele>
        <time>2020-03-27T11:04:32Z</time>
      </trkpt>
      <trkpt lat="43.72632" lon="2.48431">
        <ele>672.1</ele>
        <time>2020-03-27T11:04:35Z</time>
      </trkpt>
      <trkpt lat="43.72635" lon="2.48418">
        <ele>672.3</ele>
        <time>2020-03-27T11:04:38Z</time>
      </trkpt>
      <trkpt lat="43.72638" lon="2.48405">
        <ele>672.4</ele>
        <time>2020-03-27T11:04:41Z</time>
      </trkpt>
      <trkpt lat="43.7264" lon="2.48392">
        <ele>672.5</ele>
        <time>2020-03-27T11:04:44Z</time>
      </trkpt>
      <trkpt lat="43.72643" lon="2.48377">
        <ele>672.7</ele>
        <time>2020-03-27T11:04:48Z</time>
      </trkpt>
      <trkpt lat="43.72646" lon="2.48364">
        <ele>672.9</ele>
        <time>2020-03-27T11:04:52Z</time>
      </trkpt>
      <trkpt lat="43.72649" lon="2.4835">
        <ele>673.2</ele>
        <time>2020-03-27T11:04:57Z</time>
      </trkpt>
      <trkpt lat="43.72651" lon="2.48336">
        <ele>673.5</ele>
        <time>2020-03-27T11:05:02Z</time>
      </trkpt>
      <trkpt lat="43.72653" lon="2.48322">
        <ele>673.8</ele>
        <time>2020-03-27T11:05:07Z</time>
      </trkpt>
      <trkpt lat="43.72655" lon="2.48308">
        <ele>674.2</ele>
        <time>2020-03-27T11:05:12Z</time>
      </trkpt>
      <trkpt lat="43.72658" lon="2.48295">
        <ele>674.6</ele>
        <time>2020-03-27T11:05:17Z</time>
      </trkpt>
      <trkpt lat="43.7266" lon="2.48281">
        <ele>675</ele>
        <time>2020-03-27T11:05:22Z</time>
      </trkpt>
      <trkpt lat="43.7266" lon="2.48268">
        <ele>675.5</ele>
        <time>2020-03-27T11:05:27Z</time>
      </trkpt>
      <trkpt lat="43.72659" lon="2.48255">
        <ele>676.1</ele>
        <time>2020-03-27T11:05:33Z</time>
      </trkpt>
      <trkpt lat="43.72658" lon="2.48242">
        <ele>676.6</ele>
        <time>2020-03-27T11:05:38Z</time>
      </trkpt>
      <trkpt lat="43.72656" lon="2.48229">
        <ele>677.2</ele>
        <time>2020-03-27T11:05:44Z</time>
      </trkpt>
      <trkpt lat="43.72655" lon="2.48214">
        <ele>677.7</ele>
        <time>2020-03-27T11:05:49Z</time>
      </trkpt>
      <trkpt lat="43.72653" lon="2.48202">
        <ele>677.9</ele>
        <time>2020-03-27T11:05:52Z</time>
      </trkpt>
      <trkpt lat="43.72651" lon="2.48187">
        <ele>678.1</ele>
        <time>2020-03-27T11:05:55Z</time>
      </trkpt>
      <trkpt lat="43.72647" lon="2.48171">
        <ele>678.2</ele>
        <time>2020-03-27T11:05:58Z</time>
      </trkpt>
      <trkpt lat="43.72644" lon="2.48156">
        <ele>678.4</ele>
        <time>2020-03-27T11:06:01Z</time>
      </trkpt>
      <trkpt lat="43.72641" lon="2.48143">
        <ele>679.4</ele>
        <time>2020-03-27T11:06:03Z</time>
      </trkpt>
      <trkpt lat="43.7264" lon="2.48129">
        <ele>680</ele>
        <time>2020-03-27T11:06:05Z</time>
      </trkpt>
      <trkpt lat="43.7264" lon="2.48114">
        <ele>680.2</ele>
        <time>2020-03-27T11:06:07Z</time>
      </trkpt>
      <trkpt lat="43.72638" lon="2.48097">
        <ele>680.3</ele>
        <time>2020-03-27T11:06:09Z</time>
      </trkpt>
      <trkpt lat="43.72637" lon="2.48078">
        <ele>680.6</ele>
        <time>2020-03-27T11:06:11Z</time>
      </trkpt>
      <trkpt lat="43.72637" lon="2.48061">
        <ele>680.9</ele>
        <time>2020-03-27T11:06:13Z</time>
      </trkpt>
      <trkpt lat="43.72639" lon="2.48043">
        <ele>681.1</ele>
        <time>2020-03-27T11:06:15Z</time>
      </trkpt>
      <trkpt lat="43.7264" lon="2.48025">
        <ele>681.1</ele>
        <time>2020-03-27T11:06:17Z</time>
      </trkpt>
      <trkpt lat="43.72641" lon="2.48006">
        <ele>681</ele>
        <time>2020-03-27T11:06:19Z</time>
      </trkpt>
      <trkpt lat="43.72643" lon="2.47987">
        <ele>680.7</ele>
        <time>2020-03-27T11:06:21Z</time>
      </trkpt>
      <trkpt lat="43.72645" lon="2.47967">
        <ele>680.5</ele>
        <time>2020-03-27T11:06:23Z</time>
      </trkpt>
      <trkpt lat="43.72646" lon="2.47946">
        <ele>680.1</ele>
        <time>2020-03-27T11:06:25Z</time>
      </trkpt>
      <trkpt lat="43.72646" lon="2.47924">
        <ele>679.8</ele>
        <time>2020-03-27T11:06:27Z</time>
      </trkpt>
      <trkpt lat="43.72646" lon="2.47903">
        <ele>679.3</ele>
        <time>2020-03-27T11:06:29Z</time>
      </trkpt>
      <trkpt lat="43.72647" lon="2.47881">
        <ele>678.7</ele>
        <time>2020-03-27T11:06:31Z</time>
      </trkpt>
      <trkpt lat="43.72648" lon="2.47859">
        <ele>678.1</ele>
        <time>2020-03-27T11:06:33Z</time>
      </trkpt>
      <trkpt lat="43.72649" lon="2.47836">
        <ele>677.5</ele>
        <time>2020-03-27T11:06:35Z</time>
      </trkpt>
      <trkpt lat="43.7265" lon="2.47811">
        <ele>676.7</ele>
        <time>2020-03-27T11:06:37Z</time>
      </trkpt>
      <trkpt lat="43.72652" lon="2.47788">
        <ele>676</ele>
        <time>2020-03-27T11:06:39Z</time>
      </trkpt>
      <trkpt lat="43.72653" lon="2.4777">
        <ele>675.2</ele>
        <time>2020-03-27T11:06:41Z</time>
      </trkpt>
      <trkpt lat="43.72654" lon="2.47753">
        <ele>674.4</ele>
        <time>2020-03-27T11:06:43Z</time>
      </trkpt>
      <trkpt lat="43.72654" lon="2.47738">
        <ele>673.5</ele>
        <time>2020-03-27T11:06:45Z</time>
      </trkpt>
      <trkpt lat="43.72654" lon="2.47721">
        <ele>672.6</ele>
        <time>2020-03-27T11:06:47Z</time>
      </trkpt>
      <trkpt lat="43.72655" lon="2.47704">
        <ele>671.7</ele>
        <time>2020-03-27T11:06:49Z</time>
      </trkpt>
      <trkpt lat="43.72655" lon="2.47687">
        <ele>670</ele>
        <time>2020-03-27T11:06:52Z</time>
      </trkpt>
      <trkpt lat="43.72654" lon="2.47672">
        <ele>668.7</ele>
        <time>2020-03-27T11:06:54Z</time>
      </trkpt>
      <trkpt lat="43.72649" lon="2.47656">
        <ele>667.3</ele>
        <time>2020-03-27T11:06:56Z</time>
      </trkpt>
      <trkpt lat="43.72645" lon="2.47635">
        <ele>666.1</ele>
        <time>2020-03-27T11:06:58Z</time>
      </trkpt>
      <trkpt lat="43.72642" lon="2.47619">
        <ele>665</ele>
        <time>2020-03-27T11:07:00Z</time>
      </trkpt>
      <trkpt lat="43.72639" lon="2.47605">
        <ele>663.7</ele>
        <time>2020-03-27T11:07:02Z</time>
      </trkpt>
      <trkpt lat="43.72633" lon="2.47595">
        <ele>662.2</ele>
        <time>2020-03-27T11:07:04Z</time>
      </trkpt>
      <trkpt lat="43.72621" lon="2.47599">
        <ele>660.7</ele>
        <time>2020-03-27T11:07:06Z</time>
      </trkpt>
      <trkpt lat="43.72612" lon="2.47608">
        <ele>659.6</ele>
        <time>2020-03-27T11:07:08Z</time>
      </trkpt>
      <trkpt lat="43.72609" lon="2.4762">
        <ele>658.8</ele>
        <time>2020-03-27T11:07:10Z</time>
      </trkpt>
      <trkpt lat="43.72599" lon="2.47623">
        <ele>658.1</ele>
        <time>2020-03-27T11:07:13Z</time>
      </trkpt>
      <trkpt lat="43.72589" lon="2.47612">
        <ele>657.3</ele>
        <time>2020-03-27T11:07:15Z</time>
      </trkpt>
      <trkpt lat="43.72582" lon="2.47599">
        <ele>656.3</ele>
        <time>2020-03-27T11:07:17Z</time>
      </trkpt>
      <trkpt lat="43.72574" lon="2.47585">
        <ele>655.3</ele>
        <time>2020-03-27T11:07:19Z</time>
      </trkpt>
      <trkpt lat="43.72567" lon="2.47568">
        <ele>653.9</ele>
        <time>2020-03-27T11:07:21Z</time>
      </trkpt>
      <trkpt lat="43.72559" lon="2.47547">
        <ele>652.7</ele>
        <time>2020-03-27T11:07:23Z</time>
      </trkpt>
      <trkpt lat="43.72556" lon="2.47534">
        <ele>652.2</ele>
        <time>2020-03-27T11:07:24Z</time>
      </trkpt>
      <trkpt lat="43.72548" lon="2.47512">
        <ele>650.8</ele>
        <time>2020-03-27T11:07:26Z</time>
      </trkpt>
      <trkpt lat="43.72543" lon="2.47492">
        <ele>649.5</ele>
        <time>2020-03-27T11:07:28Z</time>
      </trkpt>
      <trkpt lat="43.72536" lon="2.47472">
        <ele>648.1</ele>
        <time>2020-03-27T11:07:30Z</time>
      </trkpt>
      <trkpt lat="43.72533" lon="2.47452">
        <ele>646.6</ele>
        <time>2020-03-27T11:07:32Z</time>
      </trkpt>
      <trkpt lat="43.72534" lon="2.47428">
        <ele>645</ele>
        <time>2020-03-27T11:07:34Z</time>
      </trkpt>
      <trkpt lat="43.72531" lon="2.47409">
        <ele>643.3</ele>
        <time>2020-03-27T11:07:36Z</time>
      </trkpt>
      <trkpt lat="43.72523" lon="2.47394">
        <ele>641.3</ele>
        <time>2020-03-27T11:07:38Z</time>
      </trkpt>
      <trkpt lat="43.72512" lon="2.47391">
        <ele>639.3</ele>
        <time>2020-03-27T11:07:40Z</time>
      </trkpt>
      <trkpt lat="43.72499" lon="2.47401">
        <ele>637.9</ele>
        <time>2020-03-27T11:07:42Z</time>
      </trkpt>
      <trkpt lat="43.72491" lon="2.47415">
        <ele>636.9</ele>
        <time>2020-03-27T11:07:44Z</time>
      </trkpt>
      <trkpt lat="43.72484" lon="2.47401">
        <ele>634.1</ele>
        <time>2020-03-27T11:07:49Z</time>
      </trkpt>
      <trkpt lat="43.72483" lon="2.47383">
        <ele>632.1</ele>
        <time>2020-03-27T11:07:51Z</time>
      </trkpt>
      <trkpt lat="43.72483" lon="2.47362">
        <ele>630</ele>
        <time>2020-03-27T11:07:53Z</time>
      </trkpt>
      <trkpt lat="43.72479" lon="2.47341">
        <ele>628</ele>
        <time>2020-03-27T11:07:55Z</time>
      </trkpt>
      <trkpt lat="43.72479" lon="2.47321">
        <ele>625.9</ele>
        <time>2020-03-27T11:07:57Z</time>
      </trkpt>
      <trkpt lat="43.72479" lon="2.47301">
        <ele>623.8</ele>
        <time>2020-03-27T11:07:59Z</time>
      </trkpt>
      <trkpt lat="43.72481" lon="2.47283">
        <ele>621.9</ele>
        <time>2020-03-27T11:08:01Z</time>
      </trkpt>
      <trkpt lat="43.7248" lon="2.47265">
        <ele>620</ele>
        <time>2020-03-27T11:08:03Z</time>
      </trkpt>
      <trkpt lat="43.7248" lon="2.47242">
        <ele>618.6</ele>
        <time>2020-03-27T11:08:05Z</time>
      </trkpt>
      <trkpt lat="43.72481" lon="2.47221">
        <ele>617.5</ele>
        <time>2020-03-27T11:08:07Z</time>
      </trkpt>
      <trkpt lat="43.72477" lon="2.47209">
        <ele>616.8</ele>
        <time>2020-03-27T11:08:10Z</time>
      </trkpt>
      <trkpt lat="43.72467" lon="2.47207">
        <ele>616.5</ele>
        <time>2020-03-27T11:08:13Z</time>
      </trkpt>
      <trkpt lat="43.72459" lon="2.47221">
        <ele>613.8</ele>
        <time>2020-03-27T11:08:16Z</time>
      </trkpt>
      <trkpt lat="43.72454" lon="2.47233">
        <ele>611.9</ele>
        <time>2020-03-27T11:08:18Z</time>
      </trkpt>
      <trkpt lat="43.72448" lon="2.47246">
        <ele>610.3</ele>
        <time>2020-03-27T11:08:20Z</time>
      </trkpt>
      <trkpt lat="43.72445" lon="2.4726">
        <ele>608.8</ele>
        <time>2020-03-27T11:08:22Z</time>
      </trkpt>
      <trkpt lat="43.72439" lon="2.47277">
        <ele>607.6</ele>
        <time>2020-03-27T11:08:24Z</time>
      </trkpt>
      <trkpt lat="43.72434" lon="2.47294">
        <ele>606.5</ele>
        <time>2020-03-27T11:08:26Z</time>
      </trkpt>
      <trkpt lat="43.72432" lon="2.47311">
        <ele>605.8</ele>
        <time>2020-03-27T11:08:28Z</time>
      </trkpt>
      <trkpt lat="43.72429" lon="2.47324">
        <ele>605.3</ele>
        <time>2020-03-27T11:08:30Z</time>
      </trkpt>
      <trkpt lat="43.72425" lon="2.47341">
        <ele>604.7</ele>
        <time>2020-03-27T11:08:32Z</time>
      </trkpt>
      <trkpt lat="43.72422" lon="2.47355">
        <ele>604.4</ele>
        <time>2020-03-27T11:08:34Z</time>
      </trkpt>
      <trkpt lat="43.7242" lon="2.47369">
        <ele>604.2</ele>
        <time>2020-03-27T11:08:36Z</time>
      </trkpt>
      <trkpt lat="43.72417" lon="2.47382">
        <ele>604.2</ele>
        <time>2020-03-27T11:08:39Z</time>
      </trkpt>
      <trkpt lat="43.72414" lon="2.47396">
        <ele>604.1</ele>
        <time>2020-03-27T11:08:42Z</time>
      </trkpt>
      <trkpt lat="43.72413" lon="2.4741">
        <ele>604.1</ele>
        <time>2020-03-27T11:08:45Z</time>
      </trkpt>
      <trkpt lat="43.72412" lon="2.47427">
        <ele>604</ele>
        <time>2020-03-27T11:08:48Z</time>
      </trkpt>
      <trkpt lat="43.72415" lon="2.47443">
        <ele>603.8</ele>
        <time>2020-03-27T11:08:51Z</time>
      </trkpt>
      <trkpt lat="43.7242" lon="2.47455">
        <ele>603.7</ele>
        <time>2020-03-27T11:08:53Z</time>
      </trkpt>
      <trkpt lat="43.72421" lon="2.47469">
        <ele>603.6</ele>
        <time>2020-03-27T11:08:55Z</time>
      </trkpt>
      <trkpt lat="43.72425" lon="2.47482">
        <ele>603</ele>
        <time>2020-03-27T11:08:57Z</time>
      </trkpt>
      <trkpt lat="43.7243" lon="2.47493">
        <ele>602.4</ele>
        <time>2020-03-27T11:08:59Z</time>
      </trkpt>
      <trkpt lat="43.72434" lon="2.47507">
        <ele>602</ele>
        <time>2020-03-27T11:09:02Z</time>
      </trkpt>
      <trkpt lat="43.72441" lon="2.47518">
        <ele>601.1</ele>
        <time>2020-03-27T11:09:05Z</time>
      </trkpt>
      <trkpt lat="43.7245" lon="2.47525">
        <ele>598.6</ele>
        <time>2020-03-27T11:09:08Z</time>
      </trkpt>
      <trkpt lat="43.72453" lon="2.4754">
        <ele>597.8</ele>
        <time>2020-03-27T11:09:10Z</time>
      </trkpt>
      <trkpt lat="43.72457" lon="2.47556">
        <ele>597.3</ele>
        <time>2020-03-27T11:09:12Z</time>
      </trkpt>
      <trkpt lat="43.72459" lon="2.47573">
        <ele>596.9</ele>
        <time>2020-03-27T11:09:14Z</time>
      </trkpt>
      <trkpt lat="43.72458" lon="2.47588">
        <ele>596.5</ele>
        <time>2020-03-27T11:09:16Z</time>
      </trkpt>
      <trkpt lat="43.7246" lon="2.47601">
        <ele>596.2</ele>
        <time>2020-03-27T11:09:18Z</time>
      </trkpt>
      <trkpt lat="43.72458" lon="2.47614">
        <ele>595.8</ele>
        <time>2020-03-27T11:09:20Z</time>
      </trkpt>
      <trkpt lat="43.72457" lon="2.47631">
        <ele>595.6</ele>
        <time>2020-03-27T11:09:22Z</time>
      </trkpt>
      <trkpt lat="43.72453" lon="2.4765">
        <ele>595.3</ele>
        <time>2020-03-27T11:09:24Z</time>
      </trkpt>
      <trkpt lat="43.72452" lon="2.47667">
        <ele>595.2</ele>
        <time>2020-03-27T11:09:26Z</time>
      </trkpt>
      <trkpt lat="43.72442" lon="2.47687">
        <ele>595.1</ele>
        <time>2020-03-27T11:09:31Z</time>
      </trkpt>
      <trkpt lat="43.72438" lon="2.47699">
        <ele>595.5</ele>
        <time>2020-03-27T11:09:34Z</time>
      </trkpt>
      <trkpt lat="43.72432" lon="2.47712">
        <ele>595.7</ele>
        <time>2020-03-27T11:09:37Z</time>
      </trkpt>
      <trkpt lat="43.72423" lon="2.47726">
        <ele>595.6</ele>
        <time>2020-03-27T11:09:39Z</time>
      </trkpt>
      <trkpt lat="43.72411" lon="2.47733">
        <ele>595.4</ele>
        <time>2020-03-27T11:09:41Z</time>
      </trkpt>
      <trkpt lat="43.724" lon="2.47732">
        <ele>594.5</ele>
        <time>2020-03-27T11:09:43Z</time>
      </trkpt>
      <trkpt lat="43.72387" lon="2.47734">
        <ele>592.3</ele>
        <time>2020-03-27T11:09:45Z</time>
      </trkpt>
      <trkpt lat="43.72372" lon="2.47734">
        <ele>589.8</ele>
        <time>2020-03-27T11:09:47Z</time>
      </trkpt>
      <trkpt lat="43.72356" lon="2.47736">
        <ele>586.7</ele>
        <time>2020-03-27T11:09:49Z</time>
      </trkpt>
      <trkpt lat="43.72341" lon="2.47743">
        <ele>583.5</ele>
        <time>2020-03-27T11:09:51Z</time>
      </trkpt>
      <trkpt lat="43.72328" lon="2.47754">
        <ele>580.5</ele>
        <time>2020-03-27T11:09:53Z</time>
      </trkpt>
      <trkpt lat="43.72314" lon="2.47765">
        <ele>577.5</ele>
        <time>2020-03-27T11:09:55Z</time>
      </trkpt>
      <trkpt lat="43.723" lon="2.47775">
        <ele>574.8</ele>
        <time>2020-03-27T11:09:57Z</time>
      </trkpt>
      <trkpt lat="43.72286" lon="2.47787">
        <ele>572.4</ele>
        <time>2020-03-27T11:09:59Z</time>
      </trkpt>
      <trkpt lat="43.72271" lon="2.478">
        <ele>570.2</ele>
        <time>2020-03-27T11:10:01Z</time>
      </trkpt>
      <trkpt lat="43.72256" lon="2.47812">
        <ele>568.2</ele>
        <time>2020-03-27T11:10:03Z</time>
      </trkpt>
      <trkpt lat="43.72249" lon="2.47819">
        <ele>567.3</ele>
        <time>2020-03-27T11:10:04Z</time>
      </trkpt>
      <trkpt lat="43.72236" lon="2.47834">
        <ele>565.7</ele>
        <time>2020-03-27T11:10:06Z</time>
      </trkpt>
      <trkpt lat="43.72232" lon="2.4785">
        <ele>564.5</ele>
        <time>2020-03-27T11:10:08Z</time>
      </trkpt>
      <trkpt lat="43.72223" lon="2.47856">
        <ele>563.7</ele>
        <time>2020-03-27T11:10:11Z</time>
      </trkpt>
      <trkpt lat="43.72227" lon="2.4784">
        <ele>563.1</ele>
        <time>2020-03-27T11:10:14Z</time>
      </trkpt>
      <trkpt lat="43.72233" lon="2.47825">
        <ele>562.4</ele>
        <time>2020-03-27T11:10:17Z</time>
      </trkpt>
      <trkpt lat="43.72238" lon="2.47811">
        <ele>561.7</ele>
        <time>2020-03-27T11:10:19Z</time>
      </trkpt>
      <trkpt lat="43.72245" lon="2.47796">
        <ele>561</ele>
        <time>2020-03-27T11:10:21Z</time>
      </trkpt>
      <trkpt lat="43.72253" lon="2.4778">
        <ele>560.3</ele>
        <time>2020-03-27T11:10:23Z</time>
      </trkpt>
      <trkpt lat="43.72263" lon="2.47763">
        <ele>559.5</ele>
        <time>2020-03-27T11:10:25Z</time>
      </trkpt>
      <trkpt lat="43.72274" lon="2.47749">
        <ele>558.7</ele>
        <time>2020-03-27T11:10:27Z</time>
      </trkpt>
      <trkpt lat="43.72285" lon="2.47735">
        <ele>558</ele>
        <time>2020-03-27T11:10:29Z</time>
      </trkpt>
      <trkpt lat="43.72296" lon="2.47722">
        <ele>557.2</ele>
        <time>2020-03-27T11:10:31Z</time>
      </trkpt>
      <trkpt lat="43.72307" lon="2.47711">
        <ele>556.4</ele>
        <time>2020-03-27T11:10:33Z</time>
      </trkpt>
      <trkpt lat="43.72318" lon="2.477">
        <ele>555.5</ele>
        <time>2020-03-27T11:10:35Z</time>
      </trkpt>
      <trkpt lat="43.72329" lon="2.47692">
        <ele>554.7</ele>
        <time>2020-03-27T11:10:37Z</time>
      </trkpt>
      <trkpt lat="43.7234" lon="2.47683">
        <ele>553.8</ele>
        <time>2020-03-27T11:10:39Z</time>
      </trkpt>
      <trkpt lat="43.72351" lon="2.47677">
        <ele>553</ele>
        <time>2020-03-27T11:10:41Z</time>
      </trkpt>
      <trkpt lat="43.72366" lon="2.47668">
        <ele>552.6</ele>
        <time>2020-03-27T11:10:43Z</time>
      </trkpt>
      <trkpt lat="43.72377" lon="2.4766">
        <ele>552.9</ele>
        <time>2020-03-27T11:10:45Z</time>
      </trkpt>
      <trkpt lat="43.72384" lon="2.47646">
        <ele>553.7</ele>
        <time>2020-03-27T11:10:47Z</time>
      </trkpt>
      <trkpt lat="43.72381" lon="2.47623">
        <ele>554.9</ele>
        <time>2020-03-27T11:10:49Z</time>
      </trkpt>
      <trkpt lat="43.72375" lon="2.47601">
        <ele>556</ele>
        <time>2020-03-27T11:10:51Z</time>
      </trkpt>
      <trkpt lat="43.72368" lon="2.4758">
        <ele>556.4</ele>
        <time>2020-03-27T11:10:53Z</time>
      </trkpt>
      <trkpt lat="43.72363" lon="2.47561">
        <ele>556.4</ele>
        <time>2020-03-27T11:10:55Z</time>
      </trkpt>
      <trkpt lat="43.72359" lon="2.47548">
        <ele>555.7</ele>
        <time>2020-03-27T11:10:57Z</time>
      </trkpt>
      <trkpt lat="43.72353" lon="2.47538">
        <ele>554.5</ele>
        <time>2020-03-27T11:10:59Z</time>
      </trkpt>
      <trkpt lat="43.72346" lon="2.47524">
        <ele>552.8</ele>
        <time>2020-03-27T11:11:01Z</time>
      </trkpt>
      <trkpt lat="43.72337" lon="2.47509">
        <ele>551.1</ele>
        <time>2020-03-27T11:11:03Z</time>
      </trkpt>
      <trkpt lat="43.72329" lon="2.475">
        <ele>549.6</ele>
        <time>2020-03-27T11:11:05Z</time>
      </trkpt>
      <trkpt lat="43.7232" lon="2.47489">
        <ele>548.3</ele>
        <time>2020-03-27T11:11:07Z</time>
      </trkpt>
      <trkpt lat="43.72311" lon="2.47478">
        <ele>547</ele>
        <time>2020-03-27T11:11:09Z</time>
      </trkpt>
      <trkpt lat="43.72297" lon="2.47463">
        <ele>546</ele>
        <time>2020-03-27T11:11:11Z</time>
      </trkpt>
      <trkpt lat="43.72284" lon="2.47451">
        <ele>544.8</ele>
        <time>2020-03-27T11:11:13Z</time>
      </trkpt>
      <trkpt lat="43.72273" lon="2.47433">
        <ele>543.6</ele>
        <time>2020-03-27T11:11:15Z</time>
      </trkpt>
      <trkpt lat="43.7227" lon="2.47411">
        <ele>542.5</ele>
        <time>2020-03-27T11:11:17Z</time>
      </trkpt>
      <trkpt lat="43.72271" lon="2.4739">
        <ele>541.1</ele>
        <time>2020-03-27T11:11:19Z</time>
      </trkpt>
      <trkpt lat="43.72272" lon="2.47368">
        <ele>539.5</ele>
        <time>2020-03-27T11:11:21Z</time>
      </trkpt>
      <trkpt lat="43.72273" lon="2.47347">
        <ele>538.1</ele>
        <time>2020-03-27T11:11:23Z</time>
      </trkpt>
      <trkpt lat="43.72276" lon="2.47326">
        <ele>536.7</ele>
        <time>2020-03-27T11:11:25Z</time>
      </trkpt>
      <trkpt lat="43.72283" lon="2.47306">
        <ele>535.6</ele>
        <time>2020-03-27T11:11:27Z</time>
      </trkpt>
      <trkpt lat="43.72286" lon="2.47293">
        <ele>535</ele>
        <time>2020-03-27T11:11:28Z</time>
      </trkpt>
      <trkpt lat="43.72291" lon="2.47272">
        <ele>534.1</ele>
        <time>2020-03-27T11:11:30Z</time>
      </trkpt>
      <trkpt lat="43.72294" lon="2.47248">
        <ele>533.5</ele>
        <time>2020-03-27T11:11:32Z</time>
      </trkpt>
      <trkpt lat="43.72294" lon="2.47236">
        <ele>533.4</ele>
        <time>2020-03-27T11:11:33Z</time>
      </trkpt>
      <trkpt lat="43.72291" lon="2.47213">
        <ele>533.4</ele>
        <time>2020-03-27T11:11:35Z</time>
      </trkpt>
      <trkpt lat="43.72287" lon="2.47194">
        <ele>533.2</ele>
        <time>2020-03-27T11:11:37Z</time>
      </trkpt>
      <trkpt lat="43.72282" lon="2.47173">
        <ele>532.9</ele>
        <time>2020-03-27T11:11:39Z</time>
      </trkpt>
      <trkpt lat="43.72282" lon="2.47149">
        <ele>532.2</ele>
        <time>2020-03-27T11:11:41Z</time>
      </trkpt>
      <trkpt lat="43.72281" lon="2.47136">
        <ele>531.7</ele>
        <time>2020-03-27T11:11:42Z</time>
      </trkpt>
      <trkpt lat="43.7228" lon="2.47122">
        <ele>531.2</ele>
        <time>2020-03-27T11:11:43Z</time>
      </trkpt>
      <trkpt lat="43.7228" lon="2.47109">
        <ele>530.6</ele>
        <time>2020-03-27T11:11:44Z</time>
      </trkpt>
      <trkpt lat="43.72281" lon="2.47096">
        <ele>530</ele>
        <time>2020-03-27T11:11:45Z</time>
      </trkpt>
      <trkpt lat="43.72283" lon="2.47071">
        <ele>528.8</ele>
        <time>2020-03-27T11:11:47Z</time>
      </trkpt>
      <trkpt lat="43.72284" lon="2.47059">
        <ele>528.2</ele>
        <time>2020-03-27T11:11:48Z</time>
      </trkpt>
      <trkpt lat="43.72288" lon="2.47035">
        <ele>527</ele>
        <time>2020-03-27T11:11:50Z</time>
      </trkpt>
      <trkpt lat="43.7229" lon="2.47012">
        <ele>525.4</ele>
        <time>2020-03-27T11:11:52Z</time>
      </trkpt>
      <trkpt lat="43.7229" lon="2.46988">
        <ele>524.1</ele>
        <time>2020-03-27T11:11:54Z</time>
      </trkpt>
      <trkpt lat="43.72286" lon="2.46962">
        <ele>522.7</ele>
        <time>2020-03-27T11:11:56Z</time>
      </trkpt>
      <trkpt lat="43.72283" lon="2.46949">
        <ele>522.3</ele>
        <time>2020-03-27T11:11:57Z</time>
      </trkpt>
      <trkpt lat="43.72281" lon="2.46926">
        <ele>522.2</ele>
        <time>2020-03-27T11:11:59Z</time>
      </trkpt>
      <trkpt lat="43.72277" lon="2.46906">
        <ele>522.4</ele>
        <time>2020-03-27T11:12:01Z</time>
      </trkpt>
      <trkpt lat="43.7227" lon="2.46876">
        <ele>523.2</ele>
        <time>2020-03-27T11:12:04Z</time>
      </trkpt>
      <trkpt lat="43.72267" lon="2.46865">
        <ele>523.8</ele>
        <time>2020-03-27T11:12:05Z</time>
      </trkpt>
      <trkpt lat="43.72265" lon="2.46852">
        <ele>524</ele>
        <time>2020-03-27T11:12:06Z</time>
      </trkpt>
      <trkpt lat="43.72261" lon="2.46828">
        <ele>523.9</ele>
        <time>2020-03-27T11:12:08Z</time>
      </trkpt>
      <trkpt lat="43.72257" lon="2.46816">
        <ele>523.6</ele>
        <time>2020-03-27T11:12:09Z</time>
      </trkpt>
      <trkpt lat="43.72254" lon="2.46802">
        <ele>523.3</ele>
        <time>2020-03-27T11:12:10Z</time>
      </trkpt>
      <trkpt lat="43.72258" lon="2.46781">
        <ele>521.6</ele>
        <time>2020-03-27T11:12:12Z</time>
      </trkpt>
      <trkpt lat="43.72263" lon="2.4676">
        <ele>517.9</ele>
        <time>2020-03-27T11:12:14Z</time>
      </trkpt>
      <trkpt lat="43.72265" lon="2.46737">
        <ele>513.8</ele>
        <time>2020-03-27T11:12:16Z</time>
      </trkpt>
      <trkpt lat="43.72269" lon="2.46716">
        <ele>509.8</ele>
        <time>2020-03-27T11:12:18Z</time>
      </trkpt>
      <trkpt lat="43.72273" lon="2.46695">
        <ele>506</ele>
        <time>2020-03-27T11:12:20Z</time>
      </trkpt>
      <trkpt lat="43.72279" lon="2.46676">
        <ele>502.5</ele>
        <time>2020-03-27T11:12:22Z</time>
      </trkpt>
      <trkpt lat="43.7229" lon="2.4666">
        <ele>499.3</ele>
        <time>2020-03-27T11:12:24Z</time>
      </trkpt>
      <trkpt lat="43.72301" lon="2.46646">
        <ele>496.6</ele>
        <time>2020-03-27T11:12:26Z</time>
      </trkpt>
      <trkpt lat="43.72311" lon="2.46633">
        <ele>494.4</ele>
        <time>2020-03-27T11:12:28Z</time>
      </trkpt>
      <trkpt lat="43.72321" lon="2.46619">
        <ele>492.5</ele>
        <time>2020-03-27T11:12:30Z</time>
      </trkpt>
      <trkpt lat="43.72339" lon="2.46599">
        <ele>490.3</ele>
        <time>2020-03-27T11:12:33Z</time>
      </trkpt>
      <trkpt lat="43.72349" lon="2.46586">
        <ele>488.2</ele>
        <time>2020-03-27T11:12:35Z</time>
      </trkpt>
      <trkpt lat="43.72361" lon="2.46575">
        <ele>486.2</ele>
        <time>2020-03-27T11:12:37Z</time>
      </trkpt>
      <trkpt lat="43.72374" lon="2.4656">
        <ele>485</ele>
        <time>2020-03-27T11:12:39Z</time>
      </trkpt>
      <trkpt lat="43.72381" lon="2.46552">
        <ele>484.7</ele>
        <time>2020-03-27T11:12:40Z</time>
      </trkpt>
      <trkpt lat="43.72394" lon="2.46536">
        <ele>484.4</ele>
        <time>2020-03-27T11:12:42Z</time>
      </trkpt>
      <trkpt lat="43.72405" lon="2.46517">
        <ele>484.1</ele>
        <time>2020-03-27T11:12:44Z</time>
      </trkpt>
      <trkpt lat="43.7241" lon="2.46505">
        <ele>484</ele>
        <time>2020-03-27T11:12:45Z</time>
      </trkpt>
      <trkpt lat="43.72415" lon="2.46495">
        <ele>484</ele>
        <time>2020-03-27T11:12:46Z</time>
      </trkpt>
      <trkpt lat="43.72425" lon="2.46476">
        <ele>483.5</ele>
        <time>2020-03-27T11:12:48Z</time>
      </trkpt>
      <trkpt lat="43.72434" lon="2.46459">
        <ele>482.9</ele>
        <time>2020-03-27T11:12:50Z</time>
      </trkpt>
      <trkpt lat="43.72444" lon="2.46441">
        <ele>482.1</ele>
        <time>2020-03-27T11:12:52Z</time>
      </trkpt>
      <trkpt lat="43.72454" lon="2.46424">
        <ele>481.3</ele>
        <time>2020-03-27T11:12:54Z</time>
      </trkpt>
      <trkpt lat="43.72465" lon="2.46404">
        <ele>480.7</ele>
        <time>2020-03-27T11:12:56Z</time>
      </trkpt>
      <trkpt lat="43.72475" lon="2.46384">
        <ele>480.1</ele>
        <time>2020-03-27T11:12:58Z</time>
      </trkpt>
      <trkpt lat="43.7248" lon="2.46374">
        <ele>480</ele>
        <time>2020-03-27T11:12:59Z</time>
      </trkpt>
      <trkpt lat="43.7249" lon="2.46353">
        <ele>479.8</ele>
        <time>2020-03-27T11:13:01Z</time>
      </trkpt>
      <trkpt lat="43.72499" lon="2.46336">
        <ele>478.9</ele>
        <time>2020-03-27T11:13:03Z</time>
      </trkpt>
      <trkpt lat="43.72508" lon="2.46316">
        <ele>478</ele>
        <time>2020-03-27T11:13:05Z</time>
      </trkpt>
      <trkpt lat="43.72516" lon="2.46298">
        <ele>477.3</ele>
        <time>2020-03-27T11:13:07Z</time>
      </trkpt>
      <trkpt lat="43.72525" lon="2.46279">
        <ele>476.7</ele>
        <time>2020-03-27T11:13:09Z</time>
      </trkpt>
      <trkpt lat="43.72533" lon="2.4626">
        <ele>475.8</ele>
        <time>2020-03-27T11:13:11Z</time>
      </trkpt>
      <trkpt lat="43.72543" lon="2.46243">
        <ele>474.9</ele>
        <time>2020-03-27T11:13:13Z</time>
      </trkpt>
      <trkpt lat="43.72553" lon="2.46225">
        <ele>474.1</ele>
        <time>2020-03-27T11:13:15Z</time>
      </trkpt>
      <trkpt lat="43.72563" lon="2.46208">
        <ele>473.2</ele>
        <time>2020-03-27T11:13:17Z</time>
      </trkpt>
      <trkpt lat="43.72573" lon="2.46192">
        <ele>472.3</ele>
        <time>2020-03-27T11:13:19Z</time>
      </trkpt>
      <trkpt lat="43.72585" lon="2.46179">
        <ele>471.3</ele>
        <time>2020-03-27T11:13:21Z</time>
      </trkpt>
      <trkpt lat="43.72596" lon="2.46165">
        <ele>470.3</ele>
        <time>2020-03-27T11:13:23Z</time>
      </trkpt>
      <trkpt lat="43.72607" lon="2.46152">
        <ele>469.2</ele>
        <time>2020-03-27T11:13:25Z</time>
      </trkpt>
      <trkpt lat="43.72621" lon="2.4614">
        <ele>468</ele>
        <time>2020-03-27T11:13:27Z</time>
      </trkpt>
      <trkpt lat="43.72634" lon="2.46131">
        <ele>466.6</ele>
        <time>2020-03-27T11:13:29Z</time>
      </trkpt>
      <trkpt lat="43.72649" lon="2.46127">
        <ele>465</ele>
        <time>2020-03-27T11:13:31Z</time>
      </trkpt>
      <trkpt lat="43.72665" lon="2.46124">
        <ele>463.3</ele>
        <time>2020-03-27T11:13:33Z</time>
      </trkpt>
      <trkpt lat="43.7268" lon="2.4612">
        <ele>461.9</ele>
        <time>2020-03-27T11:13:35Z</time>
      </trkpt>
      <trkpt lat="43.72699" lon="2.46116">
        <ele>460.4</ele>
        <time>2020-03-27T11:13:37Z</time>
      </trkpt>
      <trkpt lat="43.72714" lon="2.46112">
        <ele>458.8</ele>
        <time>2020-03-27T11:13:39Z</time>
      </trkpt>
      <trkpt lat="43.72731" lon="2.46108">
        <ele>457.6</ele>
        <time>2020-03-27T11:13:41Z</time>
      </trkpt>
      <trkpt lat="43.72745" lon="2.461">
        <ele>456.2</ele>
        <time>2020-03-27T11:13:43Z</time>
      </trkpt>
      <trkpt lat="43.7276" lon="2.4609">
        <ele>454.6</ele>
        <time>2020-03-27T11:13:45Z</time>
      </trkpt>
      <trkpt lat="43.72776" lon="2.46082">
        <ele>453.2</ele>
        <time>2020-03-27T11:13:47Z</time>
      </trkpt>
      <trkpt lat="43.7279" lon="2.46076">
        <ele>452.1</ele>
        <time>2020-03-27T11:13:49Z</time>
      </trkpt>
      <trkpt lat="43.72806" lon="2.46068">
        <ele>451.5</ele>
        <time>2020-03-27T11:13:51Z</time>
      </trkpt>
      <trkpt lat="43.72819" lon="2.4606">
        <ele>451.3</ele>
        <time>2020-03-27T11:13:53Z</time>
      </trkpt>
      <trkpt lat="43.72833" lon="2.46052">
        <ele>451.6</ele>
        <time>2020-03-27T11:13:55Z</time>
      </trkpt>
      <trkpt lat="43.72846" lon="2.46043">
        <ele>452.1</ele>
        <time>2020-03-27T11:13:57Z</time>
      </trkpt>
      <trkpt lat="43.72857" lon="2.46035">
        <ele>452.8</ele>
        <time>2020-03-27T11:13:59Z</time>
      </trkpt>
      <trkpt lat="43.72866" lon="2.46027">
        <ele>453.2</ele>
        <time>2020-03-27T11:14:01Z</time>
      </trkpt>
      <trkpt lat="43.72875" lon="2.46018">
        <ele>453.3</ele>
        <time>2020-03-27T11:14:03Z</time>
      </trkpt>
      <trkpt lat="43.72887" lon="2.4601">
        <ele>453.2</ele>
        <time>2020-03-27T11:14:05Z</time>
      </trkpt>
      <trkpt lat="43.72897" lon="2.46002">
        <ele>453.2</ele>
        <time>2020-03-27T11:14:07Z</time>
      </trkpt>
      <trkpt lat="43.72907" lon="2.45993">
        <ele>453.1</ele>
        <time>2020-03-27T11:14:09Z</time>
      </trkpt>
      <trkpt lat="43.72917" lon="2.45987">
        <ele>452.9</ele>
        <time>2020-03-27T11:14:11Z</time>
      </trkpt>
      <trkpt lat="43.72926" lon="2.4598">
        <ele>452.4</ele>
        <time>2020-03-27T11:14:13Z</time>
      </trkpt>
      <trkpt lat="43.72934" lon="2.45972">
        <ele>451.9</ele>
        <time>2020-03-27T11:14:15Z</time>
      </trkpt>
      <trkpt lat="43.72944" lon="2.45964">
        <ele>451.4</ele>
        <time>2020-03-27T11:14:18Z</time>
      </trkpt>
      <trkpt lat="43.72953" lon="2.45953">
        <ele>450.8</ele>
        <time>2020-03-27T11:14:21Z</time>
      </trkpt>
      <trkpt lat="43.72966" lon="2.45957">
        <ele>450.6</ele>
        <time>2020-03-27T11:15:50Z</time>
      </trkpt>
      <trkpt lat="43.72971" lon="2.45969">
        <ele>450.9</ele>
        <time>2020-03-27T11:15:54Z</time>
      </trkpt>
      <trkpt lat="43.72974" lon="2.45988">
        <ele>450.6</ele>
        <time>2020-03-27T11:15:57Z</time>
      </trkpt>
      <trkpt lat="43.72974" lon="2.46003">
        <ele>449.9</ele>
        <time>2020-03-27T11:15:59Z</time>
      </trkpt>
      <trkpt lat="43.72974" lon="2.4602">
        <ele>449.3</ele>
        <time>2020-03-27T11:16:01Z</time>
      </trkpt>
      <trkpt lat="43.72974" lon="2.46038">
        <ele>448.7</ele>
        <time>2020-03-27T11:16:03Z</time>
      </trkpt>
      <trkpt lat="43.72973" lon="2.46056">
        <ele>448.1</ele>
        <time>2020-03-27T11:16:05Z</time>
      </trkpt>
      <trkpt lat="43.72972" lon="2.46073">
        <ele>447.5</ele>
        <time>2020-03-27T11:16:07Z</time>
      </trkpt>
      <trkpt lat="43.72975" lon="2.46088">
        <ele>446.9</ele>
        <time>2020-03-27T11:16:09Z</time>
      </trkpt>
      <trkpt lat="43.7298" lon="2.46106">
        <ele>446.8</ele>
        <time>2020-03-27T11:16:11Z</time>
      </trkpt>
      <trkpt lat="43.72978" lon="2.46122">
        <ele>446.8</ele>
        <time>2020-03-27T11:16:13Z</time>
      </trkpt>
      <trkpt lat="43.72975" lon="2.46135">
        <ele>446.7</ele>
        <time>2020-03-27T11:16:15Z</time>
      </trkpt>
      <trkpt lat="43.7297" lon="2.46148">
        <ele>445.9</ele>
        <time>2020-03-27T11:16:17Z</time>
      </trkpt>
      <trkpt lat="43.72966" lon="2.46166">
        <ele>445.5</ele>
        <time>2020-03-27T11:16:19Z</time>
      </trkpt>
      <trkpt lat="43.72963" lon="2.46179">
        <ele>445.5</ele>
        <time>2020-03-27T11:16:21Z</time>
      </trkpt>
      <trkpt lat="43.7296" lon="2.46197">
        <ele>445.6</ele>
        <time>2020-03-27T11:16:24Z</time>
      </trkpt>
      <trkpt lat="43.72957" lon="2.46212">
        <ele>445.9</ele>
        <time>2020-03-27T11:16:27Z</time>
      </trkpt>
      <trkpt lat="43.72954" lon="2.46225">
        <ele>447.6</ele>
        <time>2020-03-27T11:16:29Z</time>
      </trkpt>
      <trkpt lat="43.7295" lon="2.46237">
        <ele>449</ele>
        <time>2020-03-27T11:16:31Z</time>
      </trkpt>
      <trkpt lat="43.72942" lon="2.46247">
        <ele>449.6</ele>
        <time>2020-03-27T11:16:34Z</time>
      </trkpt>
      <trkpt lat="43.72935" lon="2.46257">
        <ele>450.5</ele>
        <time>2020-03-27T11:16:36Z</time>
      </trkpt>
      <trkpt lat="43.72926" lon="2.46263">
        <ele>451.1</ele>
        <time>2020-03-27T11:16:38Z</time>
      </trkpt>
      <trkpt lat="43.72916" lon="2.46271">
        <ele>451.2</ele>
        <time>2020-03-27T11:16:40Z</time>
      </trkpt>
      <trkpt lat="43.72907" lon="2.46281">
        <ele>451.4</ele>
        <time>2020-03-27T11:16:42Z</time>
      </trkpt>
      <trkpt lat="43.72898" lon="2.46292">
        <ele>451.9</ele>
        <time>2020-03-27T11:16:44Z</time>
      </trkpt>
      <trkpt lat="43.72891" lon="2.46303">
        <ele>452.9</ele>
        <time>2020-03-27T11:16:46Z</time>
      </trkpt>
      <trkpt lat="43.72884" lon="2.46316">
        <ele>454.3</ele>
        <time>2020-03-27T11:16:48Z</time>
      </trkpt>
      <trkpt lat="43.72876" lon="2.46327">
        <ele>455.8</ele>
        <time>2020-03-27T11:16:50Z</time>
      </trkpt>
      <trkpt lat="43.72865" lon="2.46339">
        <ele>456.8</ele>
        <time>2020-03-27T11:16:52Z</time>
      </trkpt>
      <trkpt lat="43.72857" lon="2.46358">
        <ele>458</ele>
        <time>2020-03-27T11:16:54Z</time>
      </trkpt>
      <trkpt lat="43.72851" lon="2.46376">
        <ele>459.2</ele>
        <time>2020-03-27T11:16:56Z</time>
      </trkpt>
      <trkpt lat="43.72844" lon="2.46397">
        <ele>459.7</ele>
        <time>2020-03-27T11:16:58Z</time>
      </trkpt>
      <trkpt lat="43.72837" lon="2.46419">
        <ele>459.7</ele>
        <time>2020-03-27T11:17:00Z</time>
      </trkpt>
      <trkpt lat="43.7283" lon="2.46442">
        <ele>459.1</ele>
        <time>2020-03-27T11:17:02Z</time>
      </trkpt>
      <trkpt lat="43.72826" lon="2.46455">
        <ele>458.9</ele>
        <time>2020-03-27T11:17:03Z</time>
      </trkpt>
      <trkpt lat="43.72822" lon="2.46468">
        <ele>458.6</ele>
        <time>2020-03-27T11:17:04Z</time>
      </trkpt>
      <trkpt lat="43.72818" lon="2.4648">
        <ele>458.5</ele>
        <time>2020-03-27T11:17:05Z</time>
      </trkpt>
      <trkpt lat="43.72817" lon="2.46493">
        <ele>458.4</ele>
        <time>2020-03-27T11:17:06Z</time>
      </trkpt>
      <trkpt lat="43.72816" lon="2.46509">
        <ele>458.1</ele>
        <time>2020-03-27T11:17:07Z</time>
      </trkpt>
      <trkpt lat="43.72816" lon="2.46524">
        <ele>457.8</ele>
        <time>2020-03-27T11:17:08Z</time>
      </trkpt>
      <trkpt lat="43.72819" lon="2.46538">
        <ele>457.6</ele>
        <time>2020-03-27T11:17:09Z</time>
      </trkpt>
      <trkpt lat="43.72821" lon="2.4655">
        <ele>457.3</ele>
        <time>2020-03-27T11:17:10Z</time>
      </trkpt>
      <trkpt lat="43.72822" lon="2.46563">
        <ele>456.6</ele>
        <time>2020-03-27T11:17:11Z</time>
      </trkpt>
      <trkpt lat="43.72826" lon="2.46577">
        <ele>455.9</ele>
        <time>2020-03-27T11:17:12Z</time>
      </trkpt>
      <trkpt lat="43.72828" lon="2.4659">
        <ele>455</ele>
        <time>2020-03-27T11:17:13Z</time>
      </trkpt>
      <trkpt lat="43.7283" lon="2.46603">
        <ele>453.9</ele>
        <time>2020-03-27T11:17:14Z</time>
      </trkpt>
      <trkpt lat="43.72832" lon="2.46617">
        <ele>452.5</ele>
        <time>2020-03-27T11:17:15Z</time>
      </trkpt>
      <trkpt lat="43.72833" lon="2.46631">
        <ele>451.1</ele>
        <time>2020-03-27T11:17:16Z</time>
      </trkpt>
      <trkpt lat="43.72835" lon="2.46645">
        <ele>449.8</ele>
        <time>2020-03-27T11:17:17Z</time>
      </trkpt>
      <trkpt lat="43.72837" lon="2.4666">
        <ele>448.6</ele>
        <time>2020-03-27T11:17:18Z</time>
      </trkpt>
      <trkpt lat="43.72839" lon="2.46675">
        <ele>447.4</ele>
        <time>2020-03-27T11:17:19Z</time>
      </trkpt>
      <trkpt lat="43.72841" lon="2.46689">
        <ele>446.5</ele>
        <time>2020-03-27T11:17:20Z</time>
      </trkpt>
      <trkpt lat="43.72842" lon="2.46703">
        <ele>445.6</ele>
        <time>2020-03-27T11:17:21Z</time>
      </trkpt>
      <trkpt lat="43.72844" lon="2.46717">
        <ele>444.8</ele>
        <time>2020-03-27T11:17:22Z</time>
      </trkpt>
      <trkpt lat="43.72847" lon="2.4673">
        <ele>444.1</ele>
        <time>2020-03-27T11:17:23Z</time>
      </trkpt>
      <trkpt lat="43.72849" lon="2.46743">
        <ele>443.4</ele>
        <time>2020-03-27T11:17:24Z</time>
      </trkpt>
      <trkpt lat="43.72851" lon="2.46757">
        <ele>442.6</ele>
        <time>2020-03-27T11:17:25Z</time>
      </trkpt>
      <trkpt lat="43.72853" lon="2.46772">
        <ele>442</ele>
        <time>2020-03-27T11:17:26Z</time>
      </trkpt>
      <trkpt lat="43.72855" lon="2.46786">
        <ele>441.5</ele>
        <time>2020-03-27T11:17:27Z</time>
      </trkpt>
      <trkpt lat="43.72856" lon="2.46799">
        <ele>441.1</ele>
        <time>2020-03-27T11:17:28Z</time>
      </trkpt>
      <trkpt lat="43.72857" lon="2.46813">
        <ele>441</ele>
        <time>2020-03-27T11:17:29Z</time>
      </trkpt>
      <trkpt lat="43.72858" lon="2.46825">
        <ele>441</ele>
        <time>2020-03-27T11:17:30Z</time>
      </trkpt>
      <trkpt lat="43.72859" lon="2.46838">
        <ele>441</ele>
        <time>2020-03-27T11:17:31Z</time>
      </trkpt>
      <trkpt lat="43.7286" lon="2.46851">
        <ele>441.3</ele>
        <time>2020-03-27T11:17:32Z</time>
      </trkpt>
      <trkpt lat="43.7286" lon="2.46864">
        <ele>441.5</ele>
        <time>2020-03-27T11:17:33Z</time>
      </trkpt>
      <trkpt lat="43.72862" lon="2.46876">
        <ele>441.8</ele>
        <time>2020-03-27T11:17:34Z</time>
      </trkpt>
      <trkpt lat="43.72864" lon="2.46899">
        <ele>442.5</ele>
        <time>2020-03-27T11:17:36Z</time>
      </trkpt>
      <trkpt lat="43.72868" lon="2.4692">
        <ele>442.8</ele>
        <time>2020-03-27T11:17:38Z</time>
      </trkpt>
      <trkpt lat="43.72871" lon="2.46939">
        <ele>442.7</ele>
        <time>2020-03-27T11:17:40Z</time>
      </trkpt>
      <trkpt lat="43.72877" lon="2.46959">
        <ele>442.1</ele>
        <time>2020-03-27T11:17:42Z</time>
      </trkpt>
      <trkpt lat="43.72882" lon="2.46977">
        <ele>441.6</ele>
        <time>2020-03-27T11:17:44Z</time>
      </trkpt>
      <trkpt lat="43.72888" lon="2.46993">
        <ele>441.3</ele>
        <time>2020-03-27T11:17:46Z</time>
      </trkpt>
      <trkpt lat="43.72893" lon="2.47006">
        <ele>441</ele>
        <time>2020-03-27T11:17:48Z</time>
      </trkpt>
      <trkpt lat="43.72898" lon="2.47019">
        <ele>440.4</ele>
        <time>2020-03-27T11:17:50Z</time>
      </trkpt>
      <trkpt lat="43.72903" lon="2.47032">
        <ele>439.9</ele>
        <time>2020-03-27T11:17:52Z</time>
      </trkpt>
      <trkpt lat="43.72908" lon="2.47045">
        <ele>439.4</ele>
        <time>2020-03-27T11:17:54Z</time>
      </trkpt>
      <trkpt lat="43.72913" lon="2.47058">
        <ele>439.1</ele>
        <time>2020-03-27T11:17:56Z</time>
      </trkpt>
      <trkpt lat="43.72919" lon="2.47071">
        <ele>438.8</ele>
        <time>2020-03-27T11:17:58Z</time>
      </trkpt>
      <trkpt lat="43.72925" lon="2.47081">
        <ele>438.5</ele>
        <time>2020-03-27T11:18:00Z</time>
      </trkpt>
      <trkpt lat="43.72932" lon="2.4709">
        <ele>438.4</ele>
        <time>2020-03-27T11:18:02Z</time>
      </trkpt>
      <trkpt lat="43.72939" lon="2.47099">
        <ele>438.5</ele>
        <time>2020-03-27T11:18:04Z</time>
      </trkpt>
      <trkpt lat="43.72947" lon="2.47106">
        <ele>438.7</ele>
        <time>2020-03-27T11:18:06Z</time>
      </trkpt>
      <trkpt lat="43.72955" lon="2.47112">
        <ele>439.5</ele>
        <time>2020-03-27T11:18:08Z</time>
      </trkpt>
      <trkpt lat="43.72964" lon="2.47118">
        <ele>441</ele>
        <time>2020-03-27T11:18:10Z</time>
      </trkpt>
      <trkpt lat="43.72975" lon="2.47122">
        <ele>442.6</ele>
        <time>2020-03-27T11:18:12Z</time>
      </trkpt>
      <trkpt lat="43.72984" lon="2.47125">
        <ele>444.1</ele>
        <time>2020-03-27T11:18:14Z</time>
      </trkpt>
      <trkpt lat="43.72994" lon="2.47126">
        <ele>444.9</ele>
        <time>2020-03-27T11:18:16Z</time>
      </trkpt>
      <trkpt lat="43.73005" lon="2.47124">
        <ele>444.9</ele>
        <time>2020-03-27T11:18:18Z</time>
      </trkpt>
      <trkpt lat="43.73016" lon="2.47122">
        <ele>444.7</ele>
        <time>2020-03-27T11:18:20Z</time>
      </trkpt>
      <trkpt lat="43.73027" lon="2.47118">
        <ele>444.2</ele>
        <time>2020-03-27T11:18:22Z</time>
      </trkpt>
      <trkpt lat="43.73039" lon="2.47117">
        <ele>444</ele>
        <time>2020-03-27T11:18:24Z</time>
      </trkpt>
      <trkpt lat="43.73049" lon="2.47119">
        <ele>443.9</ele>
        <time>2020-03-27T11:18:26Z</time>
      </trkpt>
      <trkpt lat="43.73058" lon="2.47126">
        <ele>443.6</ele>
        <time>2020-03-27T11:18:28Z</time>
      </trkpt>
      <trkpt lat="43.73065" lon="2.47135">
        <ele>443.1</ele>
        <time>2020-03-27T11:18:30Z</time>
      </trkpt>
      <trkpt lat="43.73072" lon="2.47143">
        <ele>442.4</ele>
        <time>2020-03-27T11:18:32Z</time>
      </trkpt>
      <trkpt lat="43.73079" lon="2.47153">
        <ele>441.9</ele>
        <time>2020-03-27T11:18:34Z</time>
      </trkpt>
      <trkpt lat="43.73087" lon="2.47162">
        <ele>441.4</ele>
        <time>2020-03-27T11:18:36Z</time>
      </trkpt>
      <trkpt lat="43.73093" lon="2.47172">
        <ele>440.7</ele>
        <time>2020-03-27T11:18:38Z</time>
      </trkpt>
      <trkpt lat="43.73099" lon="2.47182">
        <ele>440.1</ele>
        <time>2020-03-27T11:18:40Z</time>
      </trkpt>
      <trkpt lat="43.73106" lon="2.47192">
        <ele>439.6</ele>
        <time>2020-03-27T11:18:42Z</time>
      </trkpt>
      <trkpt lat="43.73115" lon="2.47199">
        <ele>439.4</ele>
        <time>2020-03-27T11:18:44Z</time>
      </trkpt>
      <trkpt lat="43.73124" lon="2.47205">
        <ele>439.4</ele>
        <time>2020-03-27T11:18:46Z</time>
      </trkpt>
      <trkpt lat="43.73133" lon="2.4721">
        <ele>439.4</ele>
        <time>2020-03-27T11:18:48Z</time>
      </trkpt>
      <trkpt lat="43.73144" lon="2.47211">
        <ele>439.7</ele>
        <time>2020-03-27T11:18:50Z</time>
      </trkpt>
      <trkpt lat="43.73155" lon="2.47212">
        <ele>440</ele>
        <time>2020-03-27T11:18:52Z</time>
      </trkpt>
      <trkpt lat="43.73166" lon="2.47212">
        <ele>440.4</ele>
        <time>2020-03-27T11:18:54Z</time>
      </trkpt>
      <trkpt lat="43.73178" lon="2.4721">
        <ele>440.8</ele>
        <time>2020-03-27T11:18:56Z</time>
      </trkpt>
      <trkpt lat="43.73191" lon="2.47207">
        <ele>441.3</ele>
        <time>2020-03-27T11:18:58Z</time>
      </trkpt>
      <trkpt lat="43.73206" lon="2.47201">
        <ele>441.9</ele>
        <time>2020-03-27T11:19:00Z</time>
      </trkpt>
      <trkpt lat="43.73221" lon="2.47197">
        <ele>442.6</ele>
        <time>2020-03-27T11:19:02Z</time>
      </trkpt>
      <trkpt lat="43.73236" lon="2.4719">
        <ele>443.2</ele>
        <time>2020-03-27T11:19:04Z</time>
      </trkpt>
      <trkpt lat="43.73251" lon="2.47184">
        <ele>443.6</ele>
        <time>2020-03-27T11:19:06Z</time>
      </trkpt>
      <trkpt lat="43.73267" lon="2.47188">
        <ele>443.7</ele>
        <time>2020-03-27T11:19:08Z</time>
      </trkpt>
      <trkpt lat="43.73281" lon="2.472">
        <ele>443.6</ele>
        <time>2020-03-27T11:19:10Z</time>
      </trkpt>
      <trkpt lat="43.73293" lon="2.47217">
        <ele>443.2</ele>
        <time>2020-03-27T11:19:12Z</time>
      </trkpt>
      <trkpt lat="43.73303" lon="2.47234">
        <ele>442.6</ele>
        <time>2020-03-27T11:19:14Z</time>
      </trkpt>
      <trkpt lat="43.73314" lon="2.47251">
        <ele>441.9</ele>
        <time>2020-03-27T11:19:16Z</time>
      </trkpt>
      <trkpt lat="43.73324" lon="2.47267">
        <ele>441.2</ele>
        <time>2020-03-27T11:19:18Z</time>
      </trkpt>
      <trkpt lat="43.73332" lon="2.47284">
        <ele>440.5</ele>
        <time>2020-03-27T11:19:20Z</time>
      </trkpt>
      <trkpt lat="43.73336" lon="2.47302">
        <ele>439.9</ele>
        <time>2020-03-27T11:19:22Z</time>
      </trkpt>
      <trkpt lat="43.7334" lon="2.4732">
        <ele>439.5</ele>
        <time>2020-03-27T11:19:24Z</time>
      </trkpt>
      <trkpt lat="43.73341" lon="2.4734">
        <ele>438.9</ele>
        <time>2020-03-27T11:19:26Z</time>
      </trkpt>
      <trkpt lat="43.73338" lon="2.47361">
        <ele>438.6</ele>
        <time>2020-03-27T11:19:28Z</time>
      </trkpt>
      <trkpt lat="43.73337" lon="2.47382">
        <ele>438.4</ele>
        <time>2020-03-27T11:19:30Z</time>
      </trkpt>
      <trkpt lat="43.73335" lon="2.47403">
        <ele>438.1</ele>
        <time>2020-03-27T11:19:32Z</time>
      </trkpt>
      <trkpt lat="43.73334" lon="2.47424">
        <ele>437.9</ele>
        <time>2020-03-27T11:19:34Z</time>
      </trkpt>
      <trkpt lat="43.73335" lon="2.47446">
        <ele>438</ele>
        <time>2020-03-27T11:19:36Z</time>
      </trkpt>
      <trkpt lat="43.73336" lon="2.47468">
        <ele>438.4</ele>
        <time>2020-03-27T11:19:38Z</time>
      </trkpt>
      <trkpt lat="43.73341" lon="2.4749">
        <ele>439</ele>
        <time>2020-03-27T11:19:40Z</time>
      </trkpt>
      <trkpt lat="43.73348" lon="2.47511">
        <ele>439.5</ele>
        <time>2020-03-27T11:19:42Z</time>
      </trkpt>
      <trkpt lat="43.73358" lon="2.4753">
        <ele>439.9</ele>
        <time>2020-03-27T11:19:44Z</time>
      </trkpt>
      <trkpt lat="43.73369" lon="2.47546">
        <ele>440.4</ele>
        <time>2020-03-27T11:19:46Z</time>
      </trkpt>
      <trkpt lat="43.73379" lon="2.47562">
        <ele>440.4</ele>
        <time>2020-03-27T11:19:48Z</time>
      </trkpt>
      <trkpt lat="43.73392" lon="2.47573">
        <ele>440.4</ele>
        <time>2020-03-27T11:19:50Z</time>
      </trkpt>
      <trkpt lat="43.73404" lon="2.47582">
        <ele>440</ele>
        <time>2020-03-27T11:19:52Z</time>
      </trkpt>
      <trkpt lat="43.73418" lon="2.47584">
        <ele>439.6</ele>
        <time>2020-03-27T11:19:54Z</time>
      </trkpt>
      <trkpt lat="43.73432" lon="2.47587">
        <ele>439</ele>
        <time>2020-03-27T11:19:56Z</time>
      </trkpt>
      <trkpt lat="43.73446" lon="2.47587">
        <ele>438.6</ele>
        <time>2020-03-27T11:19:58Z</time>
      </trkpt>
      <trkpt lat="43.73461" lon="2.47582">
        <ele>438.1</ele>
        <time>2020-03-27T11:20:00Z</time>
      </trkpt>
      <trkpt lat="43.73475" lon="2.47568">
        <ele>438</ele>
        <time>2020-03-27T11:20:02Z</time>
      </trkpt>
      <trkpt lat="43.73489" lon="2.47552">
        <ele>437.8</ele>
        <time>2020-03-27T11:20:04Z</time>
      </trkpt>
      <trkpt lat="43.73501" lon="2.47541">
        <ele>437.1</ele>
        <time>2020-03-27T11:20:06Z</time>
      </trkpt>
      <trkpt lat="43.73514" lon="2.47528">
        <ele>436.2</ele>
        <time>2020-03-27T11:20:08Z</time>
      </trkpt>
      <trkpt lat="43.73527" lon="2.47511">
        <ele>435.8</ele>
        <time>2020-03-27T11:20:10Z</time>
      </trkpt>
      <trkpt lat="43.7354" lon="2.47501">
        <ele>435.3</ele>
        <time>2020-03-27T11:20:12Z</time>
      </trkpt>
      <trkpt lat="43.73554" lon="2.47489">
        <ele>434.4</ele>
        <time>2020-03-27T11:20:14Z</time>
      </trkpt>
      <trkpt lat="43.73562" lon="2.47483">
        <ele>433.3</ele>
        <time>2020-03-27T11:20:15Z</time>
      </trkpt>
      <trkpt lat="43.73571" lon="2.47478">
        <ele>432.1</ele>
        <time>2020-03-27T11:20:16Z</time>
      </trkpt>
      <trkpt lat="43.7358" lon="2.47473">
        <ele>430.9</ele>
        <time>2020-03-27T11:20:17Z</time>
      </trkpt>
      <trkpt lat="43.73589" lon="2.47469">
        <ele>429.7</ele>
        <time>2020-03-27T11:20:18Z</time>
      </trkpt>
      <trkpt lat="43.73605" lon="2.47465">
        <ele>428</ele>
        <time>2020-03-27T11:20:20Z</time>
      </trkpt>
      <trkpt lat="43.7362" lon="2.47461">
        <ele>427</ele>
        <time>2020-03-27T11:20:22Z</time>
      </trkpt>
      <trkpt lat="43.73636" lon="2.47457">
        <ele>426.8</ele>
        <time>2020-03-27T11:20:24Z</time>
      </trkpt>
      <trkpt lat="43.73652" lon="2.47451">
        <ele>427.3</ele>
        <time>2020-03-27T11:20:26Z</time>
      </trkpt>
      <trkpt lat="43.73666" lon="2.47448">
        <ele>428.2</ele>
        <time>2020-03-27T11:20:28Z</time>
      </trkpt>
      <trkpt lat="43.73682" lon="2.47444">
        <ele>428.9</ele>
        <time>2020-03-27T11:20:30Z</time>
      </trkpt>
      <trkpt lat="43.73697" lon="2.4744">
        <ele>429.2</ele>
        <time>2020-03-27T11:20:32Z</time>
      </trkpt>
      <trkpt lat="43.73711" lon="2.47436">
        <ele>429.1</ele>
        <time>2020-03-27T11:20:34Z</time>
      </trkpt>
      <trkpt lat="43.73726" lon="2.47434">
        <ele>428.8</ele>
        <time>2020-03-27T11:20:36Z</time>
      </trkpt>
      <trkpt lat="43.7374" lon="2.47433">
        <ele>428.3</ele>
        <time>2020-03-27T11:20:38Z</time>
      </trkpt>
      <trkpt lat="43.73752" lon="2.47433">
        <ele>427.6</ele>
        <time>2020-03-27T11:20:40Z</time>
      </trkpt>
      <trkpt lat="43.73763" lon="2.47437">
        <ele>426.9</ele>
        <time>2020-03-27T11:20:42Z</time>
      </trkpt>
      <trkpt lat="43.73772" lon="2.47443">
        <ele>426.3</ele>
        <time>2020-03-27T11:20:44Z</time>
      </trkpt>
      <trkpt lat="43.73782" lon="2.47443">
        <ele>425.8</ele>
        <time>2020-03-27T11:20:47Z</time>
      </trkpt>
      <trkpt lat="43.73781" lon="2.47427">
        <ele>425.3</ele>
        <time>2020-03-27T11:20:50Z</time>
      </trkpt>
      <trkpt lat="43.73778" lon="2.4741">
        <ele>424.7</ele>
        <time>2020-03-27T11:20:53Z</time>
      </trkpt>
      <trkpt lat="43.73775" lon="2.47394">
        <ele>424.3</ele>
        <time>2020-03-27T11:20:56Z</time>
      </trkpt>
      <trkpt lat="43.73774" lon="2.47379">
        <ele>424.2</ele>
        <time>2020-03-27T11:21:00Z</time>
      </trkpt>
      <trkpt lat="43.73772" lon="2.47366">
        <ele>424.1</ele>
        <time>2020-03-27T11:21:04Z</time>
      </trkpt>
      <trkpt lat="43.73769" lon="2.47356">
        <ele>423.9</ele>
        <time>2020-03-27T11:21:38Z</time>
      </trkpt>
    </trkseg>
  </trk>
</gpx>